<?xml version='1.0' encoding='UTF-8'?><gpx version="1.1" creator="JPX - https://github.com/jenetics/jpx" xmlns="http://www.topografix.com/GPX/1/1"><trk><trkseg><trkpt lat="43.85171281959514" lon="11.238661905565058"><ele>592.9999999999999</ele><time>2026-04-26T13:59:53.001Z</time></trkpt><trkpt lat="43.85178313286096" lon="11.238646298949167"><ele>593.0</ele><time>2026-04-26T14:00:09Z</time></trkpt><trkpt lat="43.85184245133431" lon="11.238676905113062"><ele>593.0</ele><time>2026-04-26T14:00:14.999Z</time></trkpt><trkpt lat="43.85189288251105" lon="11.238743378869932"><ele>593.0</ele><time>2026-04-26T14:00:16.999Z</time></trkpt><trkpt lat="43.85193111043921" lon="11.238673080687619"><ele>593.0</ele><time>2026-04-26T14:00:23.999Z</time></trkpt><trkpt lat="43.85199059609641" lon="11.238643251230618"><ele>592.9999999999999</ele><time>2026-04-26T14:00:30.999Z</time></trkpt><trkpt lat="43.85206180488033" lon="11.238640085102208"><ele>593.0</ele><time>2026-04-26T14:00:40.999Z</time></trkpt><trkpt lat="43.85212572724474" lon="11.238609861201466"><ele>595.5714285714286</ele><time>2026-04-26T14:01:27.999Z</time></trkpt><trkpt lat="43.8521851336788" lon="11.238579351914693"><ele>598.1428571428571</ele><time>2026-04-26T14:01:33.999Z</time></trkpt><trkpt lat="43.85224844045178" lon="11.238551899251581"><ele>600.7142857142858</ele><time>2026-04-26T14:01:39.997Z</time></trkpt><trkpt lat="43.852317765011854" lon="11.238507206052923"><ele>603.2857142857142</ele><time>2026-04-26T14:01:47.997Z</time></trkpt><trkpt lat="43.85238183737377" lon="11.238471146150436"><ele>605.8571428571429</ele><time>2026-04-26T14:02:10.998Z</time></trkpt><trkpt lat="43.85246479935204" lon="11.238431799276123"><ele>608.4285714285714</ele><time>2026-04-26T14:02:19.998Z</time></trkpt><trkpt lat="43.85252445427423" lon="11.238481048735343"><ele>611.0</ele><time>2026-04-26T14:02:33.999Z</time></trkpt><trkpt lat="43.85257466338042" lon="11.23841927062912"><ele>610.4285714285714</ele><time>2026-04-26T14:02:41.999Z</time></trkpt><trkpt lat="43.85264075228308" lon="11.238355556080796"><ele>609.8571428571429</ele><time>2026-04-26T14:02:58.999Z</time></trkpt><trkpt lat="43.85270830309707" lon="11.238329143683627"><ele>609.2857142857142</ele><time>2026-04-26T14:03:05.999Z</time></trkpt><trkpt lat="43.85276990088215" lon="11.23828135399043"><ele>608.7142857142858</ele><time>2026-04-26T14:03:14.998Z</time></trkpt><trkpt lat="43.85282796510831" lon="11.238234197635487"><ele>608.1428571428571</ele><time>2026-04-26T14:03:24.998Z</time></trkpt><trkpt lat="43.85289568172621" lon="11.23820244196085"><ele>607.5714285714286</ele><time>2026-04-26T14:03:33.998Z</time></trkpt><trkpt lat="43.85294866987048" lon="11.238151245026515"><ele>607.0</ele><time>2026-04-26T14:03:40.998Z</time></trkpt><trkpt lat="43.853007910505156" lon="11.238111658474693"><ele>606.9999999999999</ele><time>2026-04-26T14:03:48.998Z</time></trkpt><trkpt lat="43.85307027141598" lon="11.238062679658997"><ele>607.0</ele><time>2026-04-26T14:03:57.998Z</time></trkpt><trkpt lat="43.85313795096259" lon="11.238022108190199"><ele>607.0</ele><time>2026-04-26T14:04:05.999Z</time></trkpt><trkpt lat="43.85320754728974" lon="11.23799217959716"><ele>607.0</ele><time>2026-04-26T14:04:30.999Z</time></trkpt><trkpt lat="43.85328096632816" lon="11.237970911303048"><ele>607.0</ele><time>2026-04-26T14:04:38.999Z</time></trkpt><trkpt lat="43.85334845200254" lon="11.237958614362874"><ele>606.9999999999999</ele><time>2026-04-26T14:04:46.999Z</time></trkpt><trkpt lat="43.853412908037065" lon="11.237951668913297"><ele>607.0</ele><time>2026-04-26T14:04:53.999Z</time></trkpt><trkpt lat="43.85348571105998" lon="11.237950489045371"><ele>606.1428571428571</ele><time>2026-04-26T14:05:04.999Z</time></trkpt><trkpt lat="43.85355216109267" lon="11.237979266719332"><ele>605.2857142857142</ele><time>2026-04-26T14:05:10.999Z</time></trkpt><trkpt lat="43.853614591191835" lon="11.237956100674264"><ele>604.4285714285713</ele><time>2026-04-26T14:05:29.999Z</time></trkpt><trkpt lat="43.853671614918305" lon="11.237998841182439"><ele>603.5714285714286</ele><time>2026-04-26T14:05:33.999Z</time></trkpt><trkpt lat="43.85373469177189" lon="11.23802674833834"><ele>602.7142857142858</ele><time>2026-04-26T14:05:38.999Z</time></trkpt><trkpt lat="43.85379774239949" lon="11.238055414380682"><ele>601.8571428571428</ele><time>2026-04-26T14:05:45.999Z</time></trkpt><trkpt lat="43.8538682726617" lon="11.238083121568838"><ele>601.0</ele><time>2026-04-26T14:05:51.998Z</time></trkpt><trkpt lat="43.853932730537935" lon="11.238114912290365"><ele>604.0</ele><time>2026-04-26T14:05:59.999Z</time></trkpt><trkpt lat="43.85398904379022" lon="11.238169339369833"><ele>607.0</ele><time>2026-04-26T14:06:07.999Z</time></trkpt><trkpt lat="43.85405533109834" lon="11.238205004757658"><ele>610.0</ele><time>2026-04-26T14:06:20.999Z</time></trkpt><trkpt lat="43.854107452973096" lon="11.238254220537115"><ele>613.0</ele><time>2026-04-26T14:06:40Z</time></trkpt><trkpt lat="43.85416618508512" lon="11.238304772764172"><ele>616.0</ele><time>2026-04-26T14:06:46Z</time></trkpt><trkpt lat="43.85422718074191" lon="11.238340541919063"><ele>619.0</ele><time>2026-04-26T14:06:52Z</time></trkpt><trkpt lat="43.854283837245866" lon="11.238386338516664"><ele>622.0</ele><time>2026-04-26T14:06:58Z</time></trkpt><trkpt lat="43.8543430965954" lon="11.238418915846593"><ele>622.0</ele><time>2026-04-26T14:07:05Z</time></trkpt><trkpt lat="43.85440760488331" lon="11.238463813913134"><ele>622.0</ele><time>2026-04-26T14:07:13Z</time></trkpt><trkpt lat="43.85446304007639" lon="11.23851767298832"><ele>622.0</ele><time>2026-04-26T14:07:21Z</time></trkpt><trkpt lat="43.854513193969694" lon="11.238573952350526"><ele>622.0</ele><time>2026-04-26T14:07:30Z</time></trkpt><trkpt lat="43.85457441386797" lon="11.238625385848257"><ele>622.0</ele><time>2026-04-26T14:07:38Z</time></trkpt><trkpt lat="43.8546289119951" lon="11.238682182348603"><ele>622.0</ele><time>2026-04-26T14:07:55.999Z</time></trkpt><trkpt lat="43.8546890054059" lon="11.238712851594128"><ele>622.0</ele><time>2026-04-26T14:08:02.999Z</time></trkpt><trkpt lat="43.85475775570234" lon="11.238753703888932"><ele>622.0</ele><time>2026-04-26T14:08:14.999Z</time></trkpt><trkpt lat="43.85482409352862" lon="11.238809152638808"><ele>622.0</ele><time>2026-04-26T14:08:24.999Z</time></trkpt><trkpt lat="43.85488657814242" lon="11.238837058645327"><ele>622.0</ele><time>2026-04-26T14:08:33Z</time></trkpt><trkpt lat="43.85495311556638" lon="11.238849016509834"><ele>622.0</ele><time>2026-04-26T14:08:41Z</time></trkpt><trkpt lat="43.85502035737718" lon="11.238886643686877"><ele>622.0</ele><time>2026-04-26T14:08:54Z</time></trkpt><trkpt lat="43.85508146845996" lon="11.238920465522352"><ele>622.0</ele><time>2026-04-26T14:09:01Z</time></trkpt><trkpt lat="43.855145242224864" lon="11.238963231908173"><ele>622.0</ele><time>2026-04-26T14:09:08Z</time></trkpt><trkpt lat="43.85519741828831" lon="11.239014451007794"><ele>624.7142857142857</ele><time>2026-04-26T14:09:19Z</time></trkpt><trkpt lat="43.855258232956075" lon="11.239070726630603"><ele>627.4285714285714</ele><time>2026-04-26T14:09:34Z</time></trkpt><trkpt lat="43.8553152323874" lon="11.239121468281537"><ele>630.1428571428571</ele><time>2026-04-26T14:09:41Z</time></trkpt><trkpt lat="43.85537130346687" lon="11.239164611544396"><ele>632.8571428571429</ele><time>2026-04-26T14:09:49.001Z</time></trkpt><trkpt lat="43.85542864818425" lon="11.239204839753056"><ele>635.5714285714286</ele><time>2026-04-26T14:09:59.001Z</time></trkpt><trkpt lat="43.855483714933065" lon="11.239272608398192"><ele>638.2857142857143</ele><time>2026-04-26T14:10:04.999Z</time></trkpt><trkpt lat="43.85555106816338" lon="11.239320643280967"><ele>641.0</ele><time>2026-04-26T14:10:12.999Z</time></trkpt><trkpt lat="43.85560571560122" lon="11.239368587347384"><ele>641.0</ele><time>2026-04-26T14:10:21Z</time></trkpt><trkpt lat="43.8556652292226" lon="11.239417232920367"><ele>641.0</ele><time>2026-04-26T14:10:30Z</time></trkpt><trkpt lat="43.85571528311766" lon="11.23948373682321"><ele>641.0</ele><time>2026-04-26T14:10:38Z</time></trkpt><trkpt lat="43.85574231501251" lon="11.239567175579452"><ele>641.0</ele><time>2026-04-26T14:10:47Z</time></trkpt><trkpt lat="43.85571989694028" lon="11.239649928012662"><ele>641.0</ele><time>2026-04-26T14:11:31.001Z</time></trkpt><trkpt lat="43.855788167986844" lon="11.239666145852086"><ele>641.0</ele><time>2026-04-26T14:12:12Z</time></trkpt><trkpt lat="43.855845082849285" lon="11.23971936614608"><ele>641.0</ele><time>2026-04-26T14:12:20Z</time></trkpt><trkpt lat="43.85590261285481" lon="11.239767062368506"><ele>640.7142857142858</ele><time>2026-04-26T14:12:27Z</time></trkpt><trkpt lat="43.85595027517249" lon="11.239831856350582"><ele>640.4285714285714</ele><time>2026-04-26T14:12:33Z</time></trkpt><trkpt lat="43.855997052669835" lon="11.239898163108048"><ele>640.1428571428571</ele><time>2026-04-26T14:12:44Z</time></trkpt><trkpt lat="43.856052461996576" lon="11.239951771732704"><ele>639.8571428571429</ele><time>2026-04-26T14:12:52Z</time></trkpt><trkpt lat="43.856126229088254" lon="11.239990216528978"><ele>639.5714285714286</ele><time>2026-04-26T14:12:59Z</time></trkpt><trkpt lat="43.85619361377448" lon="11.240041353432074"><ele>639.2857142857143</ele><time>2026-04-26T14:13:08.001Z</time></trkpt><trkpt lat="43.856255627268524" lon="11.240065617820306"><ele>639.0</ele><time>2026-04-26T14:13:20.001Z</time></trkpt><trkpt lat="43.856324317752104" lon="11.240085922142708"><ele>640.4285714285714</ele><time>2026-04-26T14:13:27.001Z</time></trkpt><trkpt lat="43.856389752565654" lon="11.240121395963286"><ele>641.8571428571429</ele><time>2026-04-26T14:13:34.001Z</time></trkpt><trkpt lat="43.856462310518545" lon="11.240134718438934"><ele>643.2857142857142</ele><time>2026-04-26T14:13:44.001Z</time></trkpt><trkpt lat="43.85653321940573" lon="11.240162064754443"><ele>644.7142857142858</ele><time>2026-04-26T14:13:51.001Z</time></trkpt><trkpt lat="43.85659960980897" lon="11.24018306521192"><ele>646.1428571428571</ele><time>2026-04-26T14:13:58.001Z</time></trkpt><trkpt lat="43.85666145412629" lon="11.240207457792494"><ele>647.5714285714286</ele><time>2026-04-26T14:14:05.001Z</time></trkpt><trkpt lat="43.85673146330241" lon="11.240233424614832"><ele>649.0</ele><time>2026-04-26T14:14:13Z</time></trkpt><trkpt lat="43.856798445300946" lon="11.240238592988437"><ele>649.8571428571428</ele><time>2026-04-26T14:14:32Z</time></trkpt><trkpt lat="43.85686007832978" lon="11.240297367678103"><ele>650.7142857142857</ele><time>2026-04-26T14:14:38Z</time></trkpt><trkpt lat="43.85693076014364" lon="11.240332126364802"><ele>651.5714285714286</ele><time>2026-04-26T14:14:58Z</time></trkpt><trkpt lat="43.856980722867036" lon="11.24040963712193"><ele>652.4285714285713</ele><time>2026-04-26T14:15:06Z</time></trkpt><trkpt lat="43.857039693369636" lon="11.240465355923055"><ele>653.2857142857142</ele><time>2026-04-26T14:15:12.001Z</time></trkpt><trkpt lat="43.85709739824721" lon="11.240524417737767"><ele>654.1428571428571</ele><time>2026-04-26T14:15:20.001Z</time></trkpt><trkpt lat="43.85715710706896" lon="11.24056399520601"><ele>655.0</ele><time>2026-04-26T14:15:27.001Z</time></trkpt><trkpt lat="43.85721289169054" lon="11.240608858715358"><ele>653.2857142857143</ele><time>2026-04-26T14:15:34.001Z</time></trkpt><trkpt lat="43.85727957386513" lon="11.240645810903192"><ele>651.5714285714286</ele><time>2026-04-26T14:15:42.001Z</time></trkpt><trkpt lat="43.857345902308886" lon="11.240692386130872"><ele>649.8571428571429</ele><time>2026-04-26T14:15:51.001Z</time></trkpt><trkpt lat="43.857408221068354" lon="11.240709096433264"><ele>648.1428571428571</ele><time>2026-04-26T14:15:59.001Z</time></trkpt><trkpt lat="43.85747806913943" lon="11.24074178198958"><ele>646.4285714285714</ele><time>2026-04-26T14:16:08.001Z</time></trkpt><trkpt lat="43.85755239181841" lon="11.240755070079846"><ele>644.7142857142857</ele><time>2026-04-26T14:16:17.999Z</time></trkpt><trkpt lat="43.857621856321174" lon="11.24075726583946"><ele>643.0</ele><time>2026-04-26T14:16:24.999Z</time></trkpt><trkpt lat="43.85768530191844" lon="11.240754164904269"><ele>643.8571428571428</ele><time>2026-04-26T14:16:31Z</time></trkpt><trkpt lat="43.85775598668733" lon="11.240727956743594"><ele>644.7142857142858</ele><time>2026-04-26T14:16:40Z</time></trkpt><trkpt lat="43.85781331274957" lon="11.240675594312368"><ele>645.5714285714286</ele><time>2026-04-26T14:16:49Z</time></trkpt><trkpt lat="43.857865093484996" lon="11.240603484267607"><ele>646.4285714285713</ele><time>2026-04-26T14:17:02Z</time></trkpt><trkpt lat="43.85789400629767" lon="11.240515462559477"><ele>647.2857142857142</ele><time>2026-04-26T14:17:16.001Z</time></trkpt><trkpt lat="43.85794989491993" lon="11.240441359105189"><ele>648.1428571428571</ele><time>2026-04-26T14:17:24.001Z</time></trkpt><trkpt lat="43.85798758783358" lon="11.240366336641808"><ele>649.0</ele><time>2026-04-26T14:17:32.001Z</time></trkpt><trkpt lat="43.858037159134426" lon="11.240306925580745"><ele>648.9999999999999</ele><time>2026-04-26T14:17:39.001Z</time></trkpt><trkpt lat="43.85808838602735" lon="11.240248141129152"><ele>649.0</ele><time>2026-04-26T14:17:47.001Z</time></trkpt><trkpt lat="43.85812907559272" lon="11.240171085641231"><ele>649.0</ele><time>2026-04-26T14:17:54.001Z</time></trkpt><trkpt lat="43.858169770284526" lon="11.240102918473257"><ele>649.0</ele><time>2026-04-26T14:18:01.001Z</time></trkpt><trkpt lat="43.85822638885268" lon="11.240047281833538"><ele>649.0</ele><time>2026-04-26T14:18:10.002Z</time></trkpt><trkpt lat="43.858289237927" lon="11.240028812893524"><ele>648.9999999999999</ele><time>2026-04-26T14:18:17.002Z</time></trkpt><trkpt lat="43.85835315538222" lon="11.239979763484534"><ele>649.0</ele><time>2026-04-26T14:18:24Z</time></trkpt><trkpt lat="43.85841049594408" lon="11.239923935690179"><ele>648.8571428571428</ele><time>2026-04-26T14:18:32Z</time></trkpt><trkpt lat="43.8584748188561" lon="11.239886839868552"><ele>648.7142857142857</ele><time>2026-04-26T14:18:39Z</time></trkpt><trkpt lat="43.85854454714095" lon="11.239874591950406"><ele>648.5714285714286</ele><time>2026-04-26T14:18:47Z</time></trkpt><trkpt lat="43.85860880766743" lon="11.239858550827888"><ele>648.4285714285713</ele><time>2026-04-26T14:18:54Z</time></trkpt><trkpt lat="43.85867578065337" lon="11.239853544063902"><ele>648.2857142857142</ele><time>2026-04-26T14:19:00Z</time></trkpt><trkpt lat="43.85874406107915" lon="11.239855610535859"><ele>648.1428571428571</ele><time>2026-04-26T14:19:09Z</time></trkpt><trkpt lat="43.85880996838015" lon="11.239827395031277"><ele>648.0</ele><time>2026-04-26T14:19:19.001Z</time></trkpt><trkpt lat="43.85888088154108" lon="11.239824708944138"><ele>648.0</ele><time>2026-04-26T14:19:26.001Z</time></trkpt><trkpt lat="43.85895198542858" lon="11.239810486845528"><ele>648.0</ele><time>2026-04-26T14:19:34.001Z</time></trkpt><trkpt lat="43.859015784206164" lon="11.239831079503968"><ele>648.0</ele><time>2026-04-26T14:19:41.001Z</time></trkpt><trkpt lat="43.85907941552538" lon="11.23980889233844"><ele>648.0</ele><time>2026-04-26T14:19:49.001Z</time></trkpt><trkpt lat="43.85914252532694" lon="11.239793779697564"><ele>648.0</ele><time>2026-04-26T14:19:57.001Z</time></trkpt><trkpt lat="43.85921298340303" lon="11.239771755455285"><ele>648.0</ele><time>2026-04-26T14:20:07.002Z</time></trkpt><trkpt lat="43.859271783567046" lon="11.239727827620968"><ele>648.0</ele><time>2026-04-26T14:20:15.002Z</time></trkpt><trkpt lat="43.8593353382891" lon="11.239700209329005"><ele>647.8571428571429</ele><time>2026-04-26T14:20:25.002Z</time></trkpt><trkpt lat="43.85940217618962" lon="11.239680295233331"><ele>647.7142857142857</ele><time>2026-04-26T14:20:44Z</time></trkpt><trkpt lat="43.859476999133804" lon="11.239664407914178"><ele>647.5714285714286</ele><time>2026-04-26T14:21:00Z</time></trkpt><trkpt lat="43.859546440615865" lon="11.239661085898767"><ele>647.4285714285714</ele><time>2026-04-26T14:21:07Z</time></trkpt><trkpt lat="43.85961655651774" lon="11.239660348455187"><ele>647.2857142857143</ele><time>2026-04-26T14:21:14Z</time></trkpt><trkpt lat="43.859689310736044" lon="11.239649376745461"><ele>647.1428571428571</ele><time>2026-04-26T14:21:21.001Z</time></trkpt><trkpt lat="43.85975236649433" lon="11.239650452902644"><ele>647.0</ele><time>2026-04-26T14:21:28.001Z</time></trkpt><trkpt lat="43.85982225225826" lon="11.239649999495986"><ele>647.0</ele><time>2026-04-26T14:21:36.001Z</time></trkpt><trkpt lat="43.85988866343799" lon="11.23964931212293"><ele>647.0</ele><time>2026-04-26T14:21:46.001Z</time></trkpt><trkpt lat="43.8599548041836" lon="11.239644784829254"><ele>647.0</ele><time>2026-04-26T14:21:53.001Z</time></trkpt><trkpt lat="43.860025198226985" lon="11.239649070965656"><ele>647.0</ele><time>2026-04-26T14:22:01.001Z</time></trkpt><trkpt lat="43.8600923837759" lon="11.239644421114287"><ele>647.0</ele><time>2026-04-26T14:22:07.001Z</time></trkpt><trkpt lat="43.86016502230965" lon="11.239653549146134"><ele>647.0</ele><time>2026-04-26T14:22:17.002Z</time></trkpt><trkpt lat="43.8602410879769" lon="11.23964798466406"><ele>647.0</ele><time>2026-04-26T14:22:27.002Z</time></trkpt><trkpt lat="43.860300797466316" lon="11.239617735958495"><ele>646.8571428571429</ele><time>2026-04-26T14:22:44.999Z</time></trkpt><trkpt lat="43.860367144578795" lon="11.239618005029207"><ele>646.7142857142858</ele><time>2026-04-26T14:22:52Z</time></trkpt><trkpt lat="43.86042758133529" lon="11.239591298777027"><ele>646.5714285714287</ele><time>2026-04-26T14:23:02Z</time></trkpt><trkpt lat="43.860494708382525" lon="11.239589739912168"><ele>646.4285714285714</ele><time>2026-04-26T14:23:10Z</time></trkpt><trkpt lat="43.860557787385744" lon="11.239572391736495"><ele>646.2857142857143</ele><time>2026-04-26T14:23:17Z</time></trkpt><trkpt lat="43.86062626367864" lon="11.239552979981585"><ele>646.1428571428572</ele><time>2026-04-26T14:23:24Z</time></trkpt><trkpt lat="43.86069527697066" lon="11.239561504411249"><ele>646.0</ele><time>2026-04-26T14:23:31.001Z</time></trkpt><trkpt lat="43.86076717200371" lon="11.239543719417936"><ele>646.0000000000001</ele><time>2026-04-26T14:23:45.001Z</time></trkpt><trkpt lat="43.86083568434672" lon="11.239529879233924"><ele>646.0</ele><time>2026-04-26T14:23:53.001Z</time></trkpt><trkpt lat="43.86090043362446" lon="11.239527594935034"><ele>646.0</ele><time>2026-04-26T14:24:01.001Z</time></trkpt><trkpt lat="43.86096605890441" lon="11.23952989060025"><ele>646.0</ele><time>2026-04-26T14:24:11.001Z</time></trkpt><trkpt lat="43.86103684844964" lon="11.23950284734849"><ele>646.0</ele><time>2026-04-26T14:24:21.002Z</time></trkpt><trkpt lat="43.86110421995152" lon="11.23949758834836"><ele>646.0000000000001</ele><time>2026-04-26T14:24:29.002Z</time></trkpt><trkpt lat="43.861171388639974" lon="11.23947969615579"><ele>646.0</ele><time>2026-04-26T14:24:34.002Z</time></trkpt><trkpt lat="43.8612399055593" lon="11.239484145019187"><ele>646.0000000000001</ele><time>2026-04-26T14:24:41.002Z</time></trkpt><trkpt lat="43.86130308249549" lon="11.239497030336105"><ele>646.0</ele><time>2026-04-26T14:24:49.999Z</time></trkpt><trkpt lat="43.86136655998441" lon="11.239524277680072"><ele>646.0</ele><time>2026-04-26T14:24:57Z</time></trkpt><trkpt lat="43.861435289017734" lon="11.239561172315554"><ele>646.0</ele><time>2026-04-26T14:25:04Z</time></trkpt><trkpt lat="43.86149531014805" lon="11.239613785419396"><ele>646.0</ele><time>2026-04-26T14:25:12Z</time></trkpt><trkpt lat="43.86155741479359" lon="11.239645395496908"><ele>646.0000000000001</ele><time>2026-04-26T14:25:20Z</time></trkpt><trkpt lat="43.86160844460956" lon="11.239699087445617"><ele>646.0</ele><time>2026-04-26T14:25:28Z</time></trkpt><trkpt lat="43.8616616120053" lon="11.239758054659772"><ele>645.0000000000001</ele><time>2026-04-26T14:25:41.001Z</time></trkpt><trkpt lat="43.861721261349814" lon="11.239802514047314"><ele>644.0</ele><time>2026-04-26T14:25:46.001Z</time></trkpt><trkpt lat="43.861791705697016" lon="11.239798139083982"><ele>643.0</ele><time>2026-04-26T14:26:09.001Z</time></trkpt><trkpt lat="43.861857436698195" lon="11.239822675092004"><ele>642.0</ele><time>2026-04-26T14:26:15.002Z</time></trkpt><trkpt lat="43.86192385466884" lon="11.239835643520301"><ele>641.0</ele><time>2026-04-26T14:26:22.002Z</time></trkpt><trkpt lat="43.86199158470632" lon="11.239821632186542"><ele>640.0000000000001</ele><time>2026-04-26T14:26:29.002Z</time></trkpt><trkpt lat="43.86205608394372" lon="11.239815781675366"><ele>639.0</ele><time>2026-04-26T14:26:35.002Z</time></trkpt><trkpt lat="43.86211989341139" lon="11.239842598860006"><ele>642.2857142857143</ele><time>2026-04-26T14:26:44.002Z</time></trkpt><trkpt lat="43.86218679098118" lon="11.239882812111876"><ele>645.5714285714286</ele><time>2026-04-26T14:26:50.999Z</time></trkpt><trkpt lat="43.86227398383714" lon="11.239892693019224"><ele>648.8571428571429</ele><time>2026-04-26T14:27:03Z</time></trkpt><trkpt lat="43.862345228477096" lon="11.23990517201146"><ele>652.1428571428571</ele><time>2026-04-26T14:27:16.001Z</time></trkpt><trkpt lat="43.862408576913616" lon="11.23990709418299"><ele>655.4285714285714</ele><time>2026-04-26T14:27:22.001Z</time></trkpt><trkpt lat="43.86246965256195" lon="11.239934542095124"><ele>658.7142857142858</ele><time>2026-04-26T14:27:27.001Z</time></trkpt><trkpt lat="43.862546123029965" lon="11.239947217857248"><ele>662.0</ele><time>2026-04-26T14:27:35.002Z</time></trkpt><trkpt lat="43.86261419063384" lon="11.239977534564181"><ele>661.4285714285714</ele><time>2026-04-26T14:27:42.002Z</time></trkpt><trkpt lat="43.862688324452385" lon="11.240035063807799"><ele>660.8571428571429</ele><time>2026-04-26T14:28:00.003Z</time></trkpt><trkpt lat="43.862747522624815" lon="11.240073771293934"><ele>660.2857142857142</ele><time>2026-04-26T14:28:06.003Z</time></trkpt><trkpt lat="43.86281538451067" lon="11.240097532501604"><ele>659.7142857142858</ele><time>2026-04-26T14:28:13.003Z</time></trkpt><trkpt lat="43.862884907169054" lon="11.240066051178308"><ele>659.1428571428571</ele><time>2026-04-26T14:28:22.003Z</time></trkpt><trkpt lat="43.862955708270114" lon="11.240036466890045"><ele>658.5714285714286</ele><time>2026-04-26T14:28:30.003Z</time></trkpt><trkpt lat="43.86302446127115" lon="11.24005270961012"><ele>658.0</ele><time>2026-04-26T14:28:37.004Z</time></trkpt><trkpt lat="43.86309579602871" lon="11.240047090180287"><ele>658.0</ele><time>2026-04-26T14:28:44.004Z</time></trkpt><trkpt lat="43.863165625906056" lon="11.240048784847657"><ele>658.0</ele><time>2026-04-26T14:28:51.004Z</time></trkpt><trkpt lat="43.86323503780164" lon="11.240051049010164"><ele>658.0</ele><time>2026-04-26T14:28:59.002Z</time></trkpt><trkpt lat="43.863315025719366" lon="11.240054054646034"><ele>658.0</ele><time>2026-04-26T14:29:06.001Z</time></trkpt><trkpt lat="43.86338096863238" lon="11.240059328692352"><ele>658.0</ele><time>2026-04-26T14:29:16.001Z</time></trkpt><trkpt lat="43.86344747971986" lon="11.240071959600872"><ele>658.0</ele><time>2026-04-26T14:29:33.001Z</time></trkpt><trkpt lat="43.863509887342026" lon="11.240084993613564"><ele>658.0</ele><time>2026-04-26T14:29:38.002Z</time></trkpt><trkpt lat="43.86358367639153" lon="11.24009492709628"><ele>658.0</ele><time>2026-04-26T14:29:45.002Z</time></trkpt><trkpt lat="43.86365206810878" lon="11.24011743354618"><ele>658.0</ele><time>2026-04-26T14:29:51.002Z</time></trkpt><trkpt lat="43.863718244660234" lon="11.240142052164336"><ele>658.0</ele><time>2026-04-26T14:29:56.002Z</time></trkpt><trkpt lat="43.8637833250972" lon="11.240139735193683"><ele>658.0</ele><time>2026-04-26T14:30:03.002Z</time></trkpt><trkpt lat="43.863845830451645" lon="11.240158232622305"><ele>658.0</ele><time>2026-04-26T14:30:14.002Z</time></trkpt><trkpt lat="43.863921567044535" lon="11.240176383985476"><ele>658.0</ele><time>2026-04-26T14:30:21.002Z</time></trkpt><trkpt lat="43.86398544146175" lon="11.240186435541187"><ele>658.0</ele><time>2026-04-26T14:30:28.003Z</time></trkpt><trkpt lat="43.864047026505695" lon="11.24021042304657"><ele>658.0</ele><time>2026-04-26T14:30:34.003Z</time></trkpt><trkpt lat="43.86411743978042" lon="11.240216411240072"><ele>658.0</ele><time>2026-04-26T14:30:41.003Z</time></trkpt><trkpt lat="43.86418738274955" lon="11.24021708483276"><ele>658.0</ele><time>2026-04-26T14:30:47.003Z</time></trkpt><trkpt lat="43.86425240713273" lon="11.240233706603243"><ele>658.0</ele><time>2026-04-26T14:30:55.003Z</time></trkpt><trkpt lat="43.86431815956229" lon="11.240237051709173"><ele>658.0</ele><time>2026-04-26T14:31:02.001Z</time></trkpt><trkpt lat="43.86438862235626" lon="11.240246813889032"><ele>658.0</ele><time>2026-04-26T14:31:11.001Z</time></trkpt><trkpt lat="43.864456102722514" lon="11.240259208149972"><ele>658.0</ele><time>2026-04-26T14:31:25.001Z</time></trkpt><trkpt lat="43.86452101683773" lon="11.24025342967737"><ele>658.2857142857143</ele><time>2026-04-26T14:31:35.001Z</time></trkpt><trkpt lat="43.86458539952642" lon="11.240259895372006"><ele>658.5714285714286</ele><time>2026-04-26T14:31:43.001Z</time></trkpt><trkpt lat="43.86465534122402" lon="11.240257453984219"><ele>658.8571428571429</ele><time>2026-04-26T14:31:49.001Z</time></trkpt><trkpt lat="43.86472042878277" lon="11.24026126358209"><ele>659.1428571428571</ele><time>2026-04-26T14:31:55.001Z</time></trkpt><trkpt lat="43.86478721557273" lon="11.240267035816835"><ele>659.4285714285714</ele><time>2026-04-26T14:32:07.002Z</time></trkpt><trkpt lat="43.86486073417701" lon="11.240273057329265"><ele>659.7142857142858</ele><time>2026-04-26T14:32:18.002Z</time></trkpt><trkpt lat="43.864931087902754" lon="11.240276160857713"><ele>660.0</ele><time>2026-04-26T14:32:30.002Z</time></trkpt><trkpt lat="43.864996884480384" lon="11.24028325100489"><ele>660.0000000000001</ele><time>2026-04-26T14:32:44.002Z</time></trkpt><trkpt lat="43.865062094533855" lon="11.240303523776326"><ele>660.0</ele><time>2026-04-26T14:32:51.002Z</time></trkpt><trkpt lat="43.86512425189951" lon="11.240288804315743"><ele>660.0</ele><time>2026-04-26T14:32:58.003Z</time></trkpt><trkpt lat="43.86519240093102" lon="11.24027330679043"><ele>660.0</ele><time>2026-04-26T14:33:07.001Z</time></trkpt><trkpt lat="43.865262360000415" lon="11.240289404260736"><ele>660.0</ele><time>2026-04-26T14:33:16.001Z</time></trkpt><trkpt lat="43.86532849794662" lon="11.240291593818478"><ele>660.0000000000001</ele><time>2026-04-26T14:33:25.001Z</time></trkpt><trkpt lat="43.86539270554141" lon="11.24030583108814"><ele>660.0</ele><time>2026-04-26T14:33:33.001Z</time></trkpt><trkpt lat="43.86546096821419" lon="11.240321641245277"><ele>661.7142857142858</ele><time>2026-04-26T14:33:41.001Z</time></trkpt><trkpt lat="43.865524725895916" lon="11.240328626394621"><ele>663.4285714285714</ele><time>2026-04-26T14:33:51.001Z</time></trkpt><trkpt lat="43.86558775152894" lon="11.24033681717259"><ele>665.1428571428571</ele><time>2026-04-26T14:34:01.001Z</time></trkpt><trkpt lat="43.865654034505" lon="11.2403333421479"><ele>666.8571428571429</ele><time>2026-04-26T14:34:09.001Z</time></trkpt><trkpt lat="43.865719171564514" lon="11.240341612136762"><ele>668.5714285714286</ele><time>2026-04-26T14:34:17.001Z</time></trkpt><trkpt lat="43.8657884258351" lon="11.240331942023133"><ele>670.2857142857143</ele><time>2026-04-26T14:34:27.002Z</time></trkpt><trkpt lat="43.865857712577245" lon="11.240333111719758"><ele>672.0</ele><time>2026-04-26T14:34:37.002Z</time></trkpt><trkpt lat="43.86592324187744" lon="11.240318001474158"><ele>673.1428571428571</ele><time>2026-04-26T14:34:46.002Z</time></trkpt><trkpt lat="43.865986232779164" lon="11.240281187659013"><ele>674.2857142857142</ele><time>2026-04-26T14:34:54.002Z</time></trkpt><trkpt lat="43.86601839680071" lon="11.240199499580662"><ele>675.4285714285714</ele><time>2026-04-26T14:35:14Z</time></trkpt><trkpt lat="43.866079327719206" lon="11.240154162372274"><ele>676.5714285714286</ele><time>2026-04-26T14:35:20Z</time></trkpt><trkpt lat="43.86614406032154" lon="11.24012357962169"><ele>677.7142857142857</ele><time>2026-04-26T14:35:26Z</time></trkpt><trkpt lat="43.86620749686406" lon="11.240099635618757"><ele>678.8571428571429</ele><time>2026-04-26T14:35:33Z</time></trkpt><trkpt lat="43.86627484650962" lon="11.240135107255536"><ele>680.0</ele><time>2026-04-26T14:35:41Z</time></trkpt><trkpt lat="43.866625156235216" lon="11.23916485476372"><ele>680.0</ele><time>2026-04-26T14:45:03.001Z</time></trkpt><trkpt lat="43.8667045746936" lon="11.239158467845812"><ele>680.0</ele><time>2026-04-26T14:45:15.001Z</time></trkpt><trkpt lat="43.86677498508802" lon="11.23916813287712"><ele>680.0</ele><time>2026-04-26T14:45:21.001Z</time></trkpt><trkpt lat="43.866844684945235" lon="11.239179551378463"><ele>680.0</ele><time>2026-04-26T14:45:31.001Z</time></trkpt><trkpt lat="43.86691831184705" lon="11.239178547625595"><ele>680.0</ele><time>2026-04-26T14:45:38.001Z</time></trkpt><trkpt lat="43.86699397408303" lon="11.239174333316544"><ele>680.0</ele><time>2026-04-26T14:45:47Z</time></trkpt><trkpt lat="43.86705967208181" lon="11.239173217688094"><ele>680.0</ele><time>2026-04-26T14:45:54Z</time></trkpt><trkpt lat="43.867128884157545" lon="11.23920640541946"><ele>680.2857142857143</ele><time>2026-04-26T14:46:06Z</time></trkpt><trkpt lat="43.867189878889214" lon="11.239184597876854"><ele>680.5714285714286</ele><time>2026-04-26T14:46:13Z</time></trkpt><trkpt lat="43.86725986202238" lon="11.239166516094997"><ele>680.8571428571429</ele><time>2026-04-26T14:46:23Z</time></trkpt><trkpt lat="43.867326315694214" lon="11.239166707481969"><ele>681.1428571428571</ele><time>2026-04-26T14:46:32Z</time></trkpt><trkpt lat="43.867389524711605" lon="11.239173009056442"><ele>681.4285714285714</ele><time>2026-04-26T14:46:39Z</time></trkpt><trkpt lat="43.86745940924713" lon="11.23915693305817"><ele>681.7142857142857</ele><time>2026-04-26T14:46:46Z</time></trkpt><trkpt lat="43.86753626646166" lon="11.239143179420008"><ele>682.0</ele><time>2026-04-26T14:46:53Z</time></trkpt><trkpt lat="43.86760693982729" lon="11.239097990135429"><ele>681.8571428571429</ele><time>2026-04-26T14:47:03.001Z</time></trkpt><trkpt lat="43.86766948739978" lon="11.239072791715753"><ele>681.7142857142858</ele><time>2026-04-26T14:47:11.001Z</time></trkpt><trkpt lat="43.86773220323471" lon="11.239055334805194"><ele>681.5714285714287</ele><time>2026-04-26T14:47:17.001Z</time></trkpt><trkpt lat="43.86780337208795" lon="11.239027517138217"><ele>681.4285714285714</ele><time>2026-04-26T14:47:25.001Z</time></trkpt><trkpt lat="43.867877429558504" lon="11.239017562302799"><ele>681.2857142857143</ele><time>2026-04-26T14:47:33.001Z</time></trkpt><trkpt lat="43.867943470024265" lon="11.23898538791665"><ele>681.1428571428572</ele><time>2026-04-26T14:47:41.001Z</time></trkpt><trkpt lat="43.86801193621621" lon="11.23895412164013"><ele>681.0</ele><time>2026-04-26T14:47:48.999Z</time></trkpt><trkpt lat="43.8680792940954" lon="11.238915956258166"><ele>681.0000000000001</ele><time>2026-04-26T14:47:57.999Z</time></trkpt><trkpt lat="43.868148267991614" lon="11.23888426100443"><ele>681.0</ele><time>2026-04-26T14:48:05.999Z</time></trkpt><trkpt lat="43.86821355175443" lon="11.238852306892085"><ele>681.0</ele><time>2026-04-26T14:48:13.999Z</time></trkpt><trkpt lat="43.86827302429848" lon="11.238820237999931"><ele>681.0</ele><time>2026-04-26T14:48:21Z</time></trkpt><trkpt lat="43.86833305128074" lon="11.238792772717227"><ele>681.0</ele><time>2026-04-26T14:48:26Z</time></trkpt><trkpt lat="43.86838757575517" lon="11.238735660791983"><ele>681.0000000000001</ele><time>2026-04-26T14:48:34Z</time></trkpt><trkpt lat="43.86846298458709" lon="11.238734062618919"><ele>681.0</ele><time>2026-04-26T14:48:44Z</time></trkpt><trkpt lat="43.868513794599856" lon="11.238678600619126"><ele>686.2857142857143</ele><time>2026-04-26T14:48:51Z</time></trkpt><trkpt lat="43.86856134378557" lon="11.238607705842448"><ele>691.5714285714286</ele><time>2026-04-26T14:48:57Z</time></trkpt><trkpt lat="43.86860047071606" lon="11.238533731072314"><ele>696.8571428571429</ele><time>2026-04-26T14:49:04Z</time></trkpt><trkpt lat="43.86864904189317" lon="11.238476369240022"><ele>702.1428571428571</ele><time>2026-04-26T14:49:11Z</time></trkpt><trkpt lat="43.8686869127821" lon="11.238397693152613"><ele>707.4285714285714</ele><time>2026-04-26T14:49:19Z</time></trkpt><trkpt lat="43.86873625057923" lon="11.238338398670331"><ele>712.7142857142858</ele><time>2026-04-26T14:49:27Z</time></trkpt><trkpt lat="43.868760185714244" lon="11.238241382195781"><ele>718.0</ele><time>2026-04-26T14:49:35Z</time></trkpt><trkpt lat="43.86878298843256" lon="11.238146626949755"><ele>713.5714285714286</ele><time>2026-04-26T14:49:43Z</time></trkpt><trkpt lat="43.86880035073756" lon="11.238060628983302"><ele>709.1428571428571</ele><time>2026-04-26T14:49:50.001Z</time></trkpt><trkpt lat="43.86883502093452" lon="11.237968352944488"><ele>704.7142857142858</ele><time>2026-04-26T14:49:57Z</time></trkpt><trkpt lat="43.86887111980748" lon="11.237881618882605"><ele>700.2857142857142</ele><time>2026-04-26T14:50:04Z</time></trkpt><trkpt lat="43.86892538351972" lon="11.237820801773108"><ele>695.8571428571428</ele><time>2026-04-26T14:50:16Z</time></trkpt><trkpt lat="43.868978667274106" lon="11.23775611128285"><ele>691.4285714285714</ele><time>2026-04-26T14:50:24Z</time></trkpt><trkpt lat="43.869037180318074" lon="11.237703089221931"><ele>687.0</ele><time>2026-04-26T14:50:32Z</time></trkpt><trkpt lat="43.86909859875185" lon="11.237668753340854"><ele>687.0</ele><time>2026-04-26T14:50:37Z</time></trkpt><trkpt lat="43.869152495833134" lon="11.237608697143049"><ele>687.0</ele><time>2026-04-26T14:50:48Z</time></trkpt><trkpt lat="43.86920613040866" lon="11.237560714864914"><ele>687.0</ele><time>2026-04-26T14:50:56Z</time></trkpt><trkpt lat="43.86926671295029" lon="11.237518685539285"><ele>687.0</ele><time>2026-04-26T14:51:06.001Z</time></trkpt><trkpt lat="43.86933730217158" lon="11.237484406245137"><ele>687.0</ele><time>2026-04-26T14:51:23.001Z</time></trkpt><trkpt lat="43.86938957598238" lon="11.237431832259475"><ele>687.0</ele><time>2026-04-26T14:51:34.001Z</time></trkpt><trkpt lat="43.86944421996873" lon="11.237370582667014"><ele>687.0</ele><time>2026-04-26T14:51:42.001Z</time></trkpt><trkpt lat="43.86950031670354" lon="11.237324324207822"><ele>689.1428571428572</ele><time>2026-04-26T14:51:49.001Z</time></trkpt><trkpt lat="43.869563636473345" lon="11.23728054387864"><ele>691.2857142857142</ele><time>2026-04-26T14:51:57.001Z</time></trkpt><trkpt lat="43.86961674824279" lon="11.23723131152236"><ele>693.4285714285714</ele><time>2026-04-26T14:52:05.002Z</time></trkpt><trkpt lat="43.869676899697474" lon="11.237195935604761"><ele>695.5714285714287</ele><time>2026-04-26T14:52:13.001Z</time></trkpt><trkpt lat="43.86973293177432" lon="11.237147039599623"><ele>697.7142857142858</ele><time>2026-04-26T14:52:44.001Z</time></trkpt><trkpt lat="43.86980187618896" lon="11.237140119515896"><ele>699.8571428571429</ele><time>2026-04-26T14:52:52.001Z</time></trkpt><trkpt lat="43.8698569477646" lon="11.237094553060253"><ele>702.0</ele><time>2026-04-26T14:52:58.001Z</time></trkpt><trkpt lat="43.86992033420987" lon="11.237060155990841"><ele>702.0000000000001</ele><time>2026-04-26T14:53:06.001Z</time></trkpt><trkpt lat="43.86997203115454" lon="11.2370040883958"><ele>702.0</ele><time>2026-04-26T14:53:12.001Z</time></trkpt><trkpt lat="43.8700324114948" lon="11.2369580946238"><ele>702.0</ele><time>2026-04-26T14:53:21.001Z</time></trkpt><trkpt lat="43.87008932702468" lon="11.236914571681991"><ele>702.0</ele><time>2026-04-26T14:53:30.001Z</time></trkpt><trkpt lat="43.870127544303685" lon="11.236842289263414"><ele>702.0</ele><time>2026-04-26T14:53:39.001Z</time></trkpt><trkpt lat="43.8701646372928" lon="11.236760195464614"><ele>702.0000000000001</ele><time>2026-04-26T14:53:49.001Z</time></trkpt><trkpt lat="43.87016621664976" lon="11.236667876786896"><ele>702.0</ele><time>2026-04-26T14:53:55.001Z</time></trkpt><trkpt lat="43.87015380574292" lon="11.236574087682532"><ele>702.5714285714287</ele><time>2026-04-26T14:54:21.001Z</time></trkpt><trkpt lat="43.8701288361904" lon="11.236476074860015"><ele>703.1428571428571</ele><time>2026-04-26T14:54:35.001Z</time></trkpt><trkpt lat="43.87012407165787" lon="11.236382307775578"><ele>703.7142857142858</ele><time>2026-04-26T14:54:53.001Z</time></trkpt><trkpt lat="43.87013555496439" lon="11.236294883067417"><ele>704.2857142857143</ele><time>2026-04-26T14:55:00.001Z</time></trkpt><trkpt lat="43.87013430835798" lon="11.23620196954037"><ele>704.8571428571429</ele><time>2026-04-26T14:55:10.001Z</time></trkpt><trkpt lat="43.870128301302515" lon="11.23610518855065"><ele>705.4285714285714</ele><time>2026-04-26T14:55:18.001Z</time></trkpt><trkpt lat="43.87011204976965" lon="11.236017950603525"><ele>706.0</ele><time>2026-04-26T14:55:25.001Z</time></trkpt><trkpt lat="43.87009696384013" lon="11.235931749162877"><ele>706.0</ele><time>2026-04-26T14:55:30.001Z</time></trkpt><trkpt lat="43.87009067718539" lon="11.235843681422578"><ele>706.0</ele><time>2026-04-26T14:55:38.001Z</time></trkpt><trkpt lat="43.87007850935088" lon="11.235754288572698"><ele>706.0</ele><time>2026-04-26T14:55:46.001Z</time></trkpt><trkpt lat="43.87006147235991" lon="11.235666399577111"><ele>706.0</ele><time>2026-04-26T14:55:59.001Z</time></trkpt><trkpt lat="43.870038966063134" lon="11.235581767490725"><ele>706.0</ele><time>2026-04-26T14:56:14.002Z</time></trkpt><trkpt lat="43.870059252873496" lon="11.235497299269225"><ele>706.0</ele><time>2026-04-26T14:56:31.001Z</time></trkpt><trkpt lat="43.870032393253986" lon="11.235409409474988"><ele>706.0</ele><time>2026-04-26T14:56:41.001Z</time></trkpt><trkpt lat="43.870021428643035" lon="11.235309088010125"><ele>709.0</ele><time>2026-04-26T14:56:51.001Z</time></trkpt><trkpt lat="43.87003212372696" lon="11.235134692565598"><ele>712.0</ele><time>2026-04-26T14:57:34Z</time></trkpt><trkpt lat="43.86997445160152" lon="11.235082492320812"><ele>715.0</ele><time>2026-04-26T14:57:43Z</time></trkpt><trkpt lat="43.86994898068348" lon="11.235000524960176"><ele>718.0</ele><time>2026-04-26T14:57:55Z</time></trkpt><trkpt lat="43.869941677314046" lon="11.234902545928415"><ele>721.0</ele><time>2026-04-26T14:58:06Z</time></trkpt><trkpt lat="43.86992527430593" lon="11.234811606193086"><ele>724.0</ele><time>2026-04-26T14:58:42.001Z</time></trkpt><trkpt lat="43.86991144203567" lon="11.234725947679875"><ele>725.5714285714286</ele><time>2026-04-26T14:58:51Z</time></trkpt><trkpt lat="43.869895196276765" lon="11.234637503744695"><ele>727.1428571428571</ele><time>2026-04-26T14:58:59Z</time></trkpt><trkpt lat="43.86987568454588" lon="11.234548459482063"><ele>728.7142857142858</ele><time>2026-04-26T14:59:12Z</time></trkpt><trkpt lat="43.86986199503243" lon="11.234454652728685"><ele>730.2857142857142</ele><time>2026-04-26T14:59:20Z</time></trkpt><trkpt lat="43.869847611506145" lon="11.234367008683032"><ele>731.8571428571429</ele><time>2026-04-26T14:59:27Z</time></trkpt><trkpt lat="43.86984817789231" lon="11.234274891707921"><ele>733.4285714285714</ele><time>2026-04-26T14:59:41Z</time></trkpt><trkpt lat="43.86985742628081" lon="11.234188201114653"><ele>735.0</ele><time>2026-04-26T14:59:49Z</time></trkpt><trkpt lat="43.869861875120264" lon="11.234089949158841"><ele>735.0</ele><time>2026-04-26T14:59:58Z</time></trkpt><trkpt lat="43.8698592403395" lon="11.234000165211269"><ele>735.0</ele><time>2026-04-26T15:00:08Z</time></trkpt><trkpt lat="43.86986748100626" lon="11.233910832359037"><ele>735.0</ele><time>2026-04-26T15:00:36.001Z</time></trkpt><trkpt lat="43.86986704143103" lon="11.233819612233138"><ele>735.0</ele><time>2026-04-26T15:00:43Z</time></trkpt><trkpt lat="43.869868314517646" lon="11.233731498004863"><ele>735.0</ele><time>2026-04-26T15:00:50Z</time></trkpt><trkpt lat="43.86987928894515" lon="11.233644232814305"><ele>735.0</ele><time>2026-04-26T15:00:57Z</time></trkpt><trkpt lat="43.869898773824815" lon="11.233550650813637"><ele>735.0</ele><time>2026-04-26T15:01:10Z</time></trkpt><trkpt lat="43.86990411406484" lon="11.233459895435479"><ele>734.1428571428571</ele><time>2026-04-26T15:01:17Z</time></trkpt><trkpt lat="43.86991933890795" lon="11.233367771436155"><ele>733.2857142857142</ele><time>2026-04-26T15:01:24Z</time></trkpt><trkpt lat="43.86993843150472" lon="11.233273428909687"><ele>732.4285714285714</ele><time>2026-04-26T15:01:32Z</time></trkpt><trkpt lat="43.869946829002956" lon="11.233184303174353"><ele>731.5714285714286</ele><time>2026-04-26T15:01:39Z</time></trkpt><trkpt lat="43.86997120556445" lon="11.233103052646602"><ele>730.7142857142857</ele><time>2026-04-26T15:01:47Z</time></trkpt><trkpt lat="43.87000032666803" lon="11.233016862238234"><ele>729.8571428571429</ele><time>2026-04-26T15:01:55Z</time></trkpt><trkpt lat="43.87003249729345" lon="11.232941052596466"><ele>729.0</ele><time>2026-04-26T15:02:04Z</time></trkpt><trkpt lat="43.870082231049466" lon="11.232880341041177"><ele>730.7142857142858</ele><time>2026-04-26T15:02:24.999Z</time></trkpt><trkpt lat="43.87012025940513" lon="11.232787549443433"><ele>732.4285714285713</ele><time>2026-04-26T15:02:41Z</time></trkpt><trkpt lat="43.87017485266198" lon="11.232730896073107"><ele>734.1428571428571</ele><time>2026-04-26T15:02:51Z</time></trkpt><trkpt lat="43.8702366879995" lon="11.232680372391643"><ele>735.8571428571429</ele><time>2026-04-26T15:02:58Z</time></trkpt><trkpt lat="43.870299342945316" lon="11.23264222135966"><ele>737.5714285714287</ele><time>2026-04-26T15:03:07Z</time></trkpt><trkpt lat="43.87036626216415" lon="11.232616868425662"><ele>739.2857142857142</ele><time>2026-04-26T15:03:17Z</time></trkpt><trkpt lat="43.87043256319544" lon="11.23261732493785"><ele>741.0</ele><time>2026-04-26T15:03:35Z</time></trkpt><trkpt lat="43.8704982663064" lon="11.232625530176277"><ele>741.0</ele><time>2026-04-26T15:03:43Z</time></trkpt><trkpt lat="43.87056314019053" lon="11.232648497632905"><ele>741.0</ele><time>2026-04-26T15:03:50Z</time></trkpt><trkpt lat="43.87063341330174" lon="11.232666931736684"><ele>741.0</ele><time>2026-04-26T15:03:56.999Z</time></trkpt><trkpt lat="43.87070738245819" lon="11.232667759097756"><ele>741.0</ele><time>2026-04-26T15:04:04.999Z</time></trkpt><trkpt lat="43.870778781914545" lon="11.232689010273756"><ele>741.0</ele><time>2026-04-26T15:04:15.999Z</time></trkpt><trkpt lat="43.87084724483735" lon="11.232693835678294"><ele>741.0</ele><time>2026-04-26T15:04:32.999Z</time></trkpt><trkpt lat="43.87091532125544" lon="11.232703825923043"><ele>741.0</ele><time>2026-04-26T15:04:41Z</time></trkpt><trkpt lat="43.87098293694986" lon="11.232720793731922"><ele>743.1428571428571</ele><time>2026-04-26T15:04:50Z</time></trkpt><trkpt lat="43.87104774923892" lon="11.232739094935644"><ele>745.2857142857143</ele><time>2026-04-26T15:05:15Z</time></trkpt><trkpt lat="43.87111314101047" lon="11.232725845358074"><ele>747.4285714285714</ele><time>2026-04-26T15:05:22Z</time></trkpt><trkpt lat="43.871182936829804" lon="11.232747206972045"><ele>749.5714285714286</ele><time>2026-04-26T15:05:41Z</time></trkpt><trkpt lat="43.87125625049673" lon="11.232750018455954"><ele>751.7142857142858</ele><time>2026-04-26T15:05:49.999Z</time></trkpt><trkpt lat="43.871319688026745" lon="11.232706479468504"><ele>753.8571428571429</ele><time>2026-04-26T15:06:02.999Z</time></trkpt><trkpt lat="43.8713895754067" lon="11.23269686223974"><ele>756.0</ele><time>2026-04-26T15:06:13.999Z</time></trkpt><trkpt lat="43.87144656511932" lon="11.23265429175316"><ele>756.0</ele><time>2026-04-26T15:06:30.999Z</time></trkpt><trkpt lat="43.87150981348667" lon="11.23263017910072"><ele>756.0</ele><time>2026-04-26T15:06:37.999Z</time></trkpt><trkpt lat="43.87157599232727" lon="11.232616535610473"><ele>756.0</ele><time>2026-04-26T15:07:07Z</time></trkpt><trkpt lat="43.8716324455345" lon="11.23256514570805"><ele>756.0</ele><time>2026-04-26T15:07:18Z</time></trkpt><trkpt lat="43.8717034381434" lon="11.232551007130748"><ele>756.0</ele><time>2026-04-26T15:07:26Z</time></trkpt><trkpt lat="43.87176571767575" lon="11.23252686432691"><ele>756.0</ele><time>2026-04-26T15:07:37.999Z</time></trkpt><trkpt lat="43.87182860315655" lon="11.232502142689219"><ele>756.0</ele><time>2026-04-26T15:07:45.999Z</time></trkpt><trkpt lat="43.87189128172916" lon="11.23247767603951"><ele>758.0</ele><time>2026-04-26T15:07:59.999Z</time></trkpt><trkpt lat="43.87195205676293" lon="11.232453916785394"><ele>760.0</ele><time>2026-04-26T15:08:17.999Z</time></trkpt><trkpt lat="43.87202531108347" lon="11.232438888034016"><ele>762.0</ele><time>2026-04-26T15:08:28.999Z</time></trkpt><trkpt lat="43.8720974572016" lon="11.232420971268937"><ele>764.0</ele><time>2026-04-26T15:08:38.999Z</time></trkpt><trkpt lat="43.872167660823344" lon="11.232417623105121"><ele>766.0</ele><time>2026-04-26T15:08:53Z</time></trkpt><trkpt lat="43.87223264605437" lon="11.232400891491347"><ele>768.0</ele><time>2026-04-26T15:08:59Z</time></trkpt><trkpt lat="43.872297798291925" lon="11.232384741824918"><ele>770.0</ele><time>2026-04-26T15:09:06Z</time></trkpt><trkpt lat="43.87236664836738" lon="11.23238099404542"><ele>770.0</ele><time>2026-04-26T15:09:27Z</time></trkpt><trkpt lat="43.87243250777953" lon="11.232379501565855"><ele>770.0</ele><time>2026-04-26T15:09:34Z</time></trkpt><trkpt lat="43.87250343196838" lon="11.232370173310846"><ele>770.0</ele><time>2026-04-26T15:09:43Z</time></trkpt><trkpt lat="43.87257523517847" lon="11.232375740360045"><ele>770.0</ele><time>2026-04-26T15:09:50.999Z</time></trkpt><trkpt lat="43.87264829248634" lon="11.232380999613053"><ele>770.0</ele><time>2026-04-26T15:10:04.999Z</time></trkpt><trkpt lat="43.87271487899862" lon="11.232377462525575"><ele>770.0</ele><time>2026-04-26T15:10:12.999Z</time></trkpt><trkpt lat="43.872782306894564" lon="11.232380869199051"><ele>770.0</ele><time>2026-04-26T15:10:20.999Z</time></trkpt><trkpt lat="43.87285334146915" lon="11.232394931208683"><ele>770.8571428571429</ele><time>2026-04-26T15:11:23Z</time></trkpt><trkpt lat="43.87292405601766" lon="11.232396668211555"><ele>771.7142857142858</ele><time>2026-04-26T15:11:29Z</time></trkpt><trkpt lat="43.87299462906319" lon="11.232420876172483"><ele>772.5714285714286</ele><time>2026-04-26T15:11:35Z</time></trkpt><trkpt lat="43.87305828483794" lon="11.232431659706931"><ele>773.4285714285714</ele><time>2026-04-26T15:11:42Z</time></trkpt><trkpt lat="43.873129779052285" lon="11.232445331564447"><ele>774.2857142857143</ele><time>2026-04-26T15:11:49Z</time></trkpt><trkpt lat="43.873189924058394" lon="11.23247630358687"><ele>775.1428571428571</ele><time>2026-04-26T15:11:56Z</time></trkpt><trkpt lat="43.873253786307444" lon="11.232495897194799"><ele>776.0</ele><time>2026-04-26T15:12:02.999Z</time></trkpt><trkpt lat="43.87331489398122" lon="11.23252019559589"><ele>776.0</ele><time>2026-04-26T15:12:08.999Z</time></trkpt><trkpt lat="43.87338014451069" lon="11.232538529591771"><ele>776.0</ele><time>2026-04-26T15:12:23.999Z</time></trkpt><trkpt lat="43.873444658536926" lon="11.232569843598489"><ele>776.0</ele><time>2026-04-26T15:12:36.999Z</time></trkpt><trkpt lat="43.87351268476149" lon="11.232601764340464"><ele>776.0</ele><time>2026-04-26T15:12:43.999Z</time></trkpt><trkpt lat="43.873570553153584" lon="11.232636174140135"><ele>776.0</ele><time>2026-04-26T15:13:05Z</time></trkpt><trkpt lat="43.87363394965715" lon="11.232668719938928"><ele>776.0</ele><time>2026-04-26T15:13:14Z</time></trkpt><trkpt lat="43.873702291150416" lon="11.232690919761486"><ele>776.0</ele><time>2026-04-26T15:13:23Z</time></trkpt><trkpt lat="43.87377286242589" lon="11.23272107083034"><ele>775.8571428571428</ele><time>2026-04-26T15:13:33Z</time></trkpt><trkpt lat="43.87384329356131" lon="11.232764726676441"><ele>775.7142857142858</ele><time>2026-04-26T15:13:44Z</time></trkpt><trkpt lat="43.87378971368696" lon="11.232731667026425"><ele>775.5714285714286</ele><time>2026-04-26T15:15:51.999Z</time></trkpt><trkpt lat="43.87376484192978" lon="11.23264612526739"><ele>775.4285714285713</ele><time>2026-04-26T15:16:36.999Z</time></trkpt><trkpt lat="43.873759074675434" lon="11.232759176350452"><ele>775.2857142857142</ele><time>2026-04-26T15:17:44Z</time></trkpt><trkpt lat="43.87370175487103" lon="11.232722871587917"><ele>775.1428571428571</ele><time>2026-04-26T15:17:52Z</time></trkpt><trkpt lat="43.8736479998482" lon="11.232665303503483"><ele>775.0</ele><time>2026-04-26T15:18:24.999Z</time></trkpt><trkpt lat="43.87359134471415" lon="11.232623353578473"><ele>774.9999999999999</ele><time>2026-04-26T15:18:33.999Z</time></trkpt><trkpt lat="43.87353170415495" lon="11.232580867296601"><ele>775.0</ele><time>2026-04-26T15:18:42.999Z</time></trkpt><trkpt lat="43.87347346302271" lon="11.232529122290883"><ele>775.0</ele><time>2026-04-26T15:18:50.999Z</time></trkpt><trkpt lat="43.8734086899851" lon="11.232557226991542"><ele>775.0</ele><time>2026-04-26T15:18:56.999Z</time></trkpt><trkpt lat="43.873345816250115" lon="11.232539361464028"><ele>775.0</ele><time>2026-04-26T15:19:05.999Z</time></trkpt><trkpt lat="43.873282523250666" lon="11.232514809623872"><ele>774.9999999999999</ele><time>2026-04-26T15:19:13.999Z</time></trkpt><trkpt lat="43.87321598771914" lon="11.232491518068796"><ele>775.0</ele><time>2026-04-26T15:19:22Z</time></trkpt><trkpt lat="43.873150325402406" lon="11.232474052521608"><ele>775.1428571428571</ele><time>2026-04-26T15:19:30Z</time></trkpt><trkpt lat="43.873086175223534" lon="11.232462071319121"><ele>775.2857142857142</ele><time>2026-04-26T15:19:37Z</time></trkpt><trkpt lat="43.873019710848325" lon="11.232444310347692"><ele>775.4285714285713</ele><time>2026-04-26T15:19:45Z</time></trkpt><trkpt lat="43.872957929935396" lon="11.232422821846406"><ele>775.5714285714286</ele><time>2026-04-26T15:19:52Z</time></trkpt><trkpt lat="43.87288884282781" lon="11.232412824410119"><ele>775.7142857142858</ele><time>2026-04-26T15:20:00Z</time></trkpt><trkpt lat="43.87282491065791" lon="11.232408218610997"><ele>775.8571428571428</ele><time>2026-04-26T15:20:07Z</time></trkpt><trkpt lat="43.872753583278595" lon="11.232404390319074"><ele>776.0</ele><time>2026-04-26T15:20:15Z</time></trkpt><trkpt lat="43.8726810771691" lon="11.232393218374208"><ele>776.0</ele><time>2026-04-26T15:20:24Z</time></trkpt><trkpt lat="43.87261412634352" lon="11.232397215383388"><ele>776.0</ele><time>2026-04-26T15:20:32Z</time></trkpt><trkpt lat="43.87254199810234" lon="11.232395624026294"><ele>776.0</ele><time>2026-04-26T15:20:40Z</time></trkpt><trkpt lat="43.87247568085806" lon="11.232399191269915"><ele>776.0</ele><time>2026-04-26T15:20:49Z</time></trkpt><trkpt lat="43.87240667456762" lon="11.232399738908"><ele>776.0</ele><time>2026-04-26T15:21:01Z</time></trkpt><trkpt lat="43.87233827901253" lon="11.232400459330066"><ele>776.0</ele><time>2026-04-26T15:21:10Z</time></trkpt><trkpt lat="43.87227375258701" lon="11.232405603483171"><ele>776.0</ele><time>2026-04-26T15:21:17Z</time></trkpt><trkpt lat="43.87220628671191" lon="11.23240486153402"><ele>775.1428571428571</ele><time>2026-04-26T15:21:25Z</time></trkpt><trkpt lat="43.87214633425774" lon="11.23243614677994"><ele>774.2857142857143</ele><time>2026-04-26T15:21:31Z</time></trkpt><trkpt lat="43.872077124471716" lon="11.232442984695217"><ele>773.4285714285714</ele><time>2026-04-26T15:21:40Z</time></trkpt><trkpt lat="43.87200006042572" lon="11.232458538273587"><ele>772.5714285714286</ele><time>2026-04-26T15:21:53Z</time></trkpt><trkpt lat="43.871934645502144" lon="11.232476748735415"><ele>771.7142857142858</ele><time>2026-04-26T15:22:03Z</time></trkpt><trkpt lat="43.871858866445294" lon="11.232506220339845"><ele>770.8571428571429</ele><time>2026-04-26T15:22:16Z</time></trkpt><trkpt lat="43.87179411592124" lon="11.232543501672343"><ele>770.0</ele><time>2026-04-26T15:22:25Z</time></trkpt><trkpt lat="43.871729329935036" lon="11.232553582173788"><ele>768.0</ele><time>2026-04-26T15:22:33Z</time></trkpt><trkpt lat="43.871673652375556" lon="11.232599673548997"><ele>766.0</ele><time>2026-04-26T15:22:43Z</time></trkpt><trkpt lat="43.87160847772768" lon="11.232614677002005"><ele>764.0</ele><time>2026-04-26T15:22:51Z</time></trkpt><trkpt lat="43.87155375452761" lon="11.2326632009369"><ele>762.0</ele><time>2026-04-26T15:23:16.999Z</time></trkpt><trkpt lat="43.87149243713073" lon="11.232695015376049"><ele>760.0</ele><time>2026-04-26T15:23:22.999Z</time></trkpt><trkpt lat="43.87142595707151" lon="11.232721769690007"><ele>758.0</ele><time>2026-04-26T15:23:32Z</time></trkpt><trkpt lat="43.87135076921638" lon="11.232736824979705"><ele>756.0</ele><time>2026-04-26T15:23:45Z</time></trkpt><trkpt lat="43.871285253132676" lon="11.232757557019418"><ele>756.0</ele><time>2026-04-26T15:23:54Z</time></trkpt><trkpt lat="43.8712119062113" lon="11.232752645454372"><ele>756.0</ele><time>2026-04-26T15:24:06Z</time></trkpt><trkpt lat="43.871142024169046" lon="11.232740409685144"><ele>756.0</ele><time>2026-04-26T15:24:16Z</time></trkpt><trkpt lat="43.87107761247246" lon="11.23273914528205"><ele>756.0</ele><time>2026-04-26T15:24:30Z</time></trkpt><trkpt lat="43.871009636473595" lon="11.23273544564962"><ele>756.0</ele><time>2026-04-26T15:24:40Z</time></trkpt><trkpt lat="43.870940242067235" lon="11.232733294858418"><ele>756.0</ele><time>2026-04-26T15:24:49Z</time></trkpt><trkpt lat="43.87086344125905" lon="11.232721149982748"><ele>756.0</ele><time>2026-04-26T15:25:06Z</time></trkpt><trkpt lat="43.870790572617935" lon="11.232706924718533"><ele>753.8571428571429</ele><time>2026-04-26T15:25:23.999Z</time></trkpt><trkpt lat="43.870723334795834" lon="11.232700135322652"><ele>751.7142857142858</ele><time>2026-04-26T15:25:35Z</time></trkpt><trkpt lat="43.870653527772596" lon="11.232688634473162"><ele>749.5714285714286</ele><time>2026-04-26T15:25:42Z</time></trkpt><trkpt lat="43.87058576964882" lon="11.232674343363287"><ele>747.4285714285714</ele><time>2026-04-26T15:25:51Z</time></trkpt><trkpt lat="43.87051850578205" lon="11.232668739759811"><ele>745.2857142857143</ele><time>2026-04-26T15:26:01Z</time></trkpt><trkpt lat="43.87045615984146" lon="11.232681968966814"><ele>743.1428571428571</ele><time>2026-04-26T15:26:08Z</time></trkpt><trkpt lat="43.87039176271519" lon="11.232688353782176"><ele>741.0</ele><time>2026-04-26T15:26:20Z</time></trkpt><trkpt lat="43.87032879482429" lon="11.232672373185492"><ele>741.0</ele><time>2026-04-26T15:26:28Z</time></trkpt><trkpt lat="43.870270184280436" lon="11.232707471581007"><ele>741.0</ele><time>2026-04-26T15:26:38Z</time></trkpt><trkpt lat="43.870215116116405" lon="11.232753423215827"><ele>741.0</ele><time>2026-04-26T15:26:47Z</time></trkpt><trkpt lat="43.8701640690534" lon="11.23281797557835"><ele>741.0</ele><time>2026-04-26T15:26:57Z</time></trkpt><trkpt lat="43.87010933456032" lon="11.232871979161049"><ele>741.0</ele><time>2026-04-26T15:27:05Z</time></trkpt><trkpt lat="43.87007310124287" lon="11.232953425063146"><ele>741.0</ele><time>2026-04-26T15:27:12.999Z</time></trkpt><trkpt lat="43.87001683713427" lon="11.232993799624657"><ele>741.0</ele><time>2026-04-26T15:27:32.999Z</time></trkpt><trkpt lat="43.870002129332505" lon="11.233090645741685"><ele>739.2857142857142</ele><time>2026-04-26T15:27:43Z</time></trkpt><trkpt lat="43.86998626793543" lon="11.233186051626642"><ele>737.5714285714287</ele><time>2026-04-26T15:29:27.999Z</time></trkpt><trkpt lat="43.86997413871768" lon="11.2332778431052"><ele>735.8571428571429</ele><time>2026-04-26T15:29:34.999Z</time></trkpt><trkpt lat="43.86994639770262" lon="11.233357577544327"><ele>734.1428571428571</ele><time>2026-04-26T15:29:42.999Z</time></trkpt><trkpt lat="43.869929647082536" lon="11.233442573786933"><ele>732.4285714285713</ele><time>2026-04-26T15:29:51Z</time></trkpt><trkpt lat="43.86991016491252" lon="11.233545432062652"><ele>730.7142857142858</ele><time>2026-04-26T15:30:02Z</time></trkpt><trkpt lat="43.86989196542362" lon="11.233640862564373"><ele>729.0</ele><time>2026-04-26T15:30:15Z</time></trkpt><trkpt lat="43.86988374780042" lon="11.233732540174454"><ele>729.0</ele><time>2026-04-26T15:30:27Z</time></trkpt><trkpt lat="43.86988059485741" lon="11.233821066987941"><ele>729.0</ele><time>2026-04-26T15:30:37Z</time></trkpt><trkpt lat="43.869869444140974" lon="11.233914257140768"><ele>729.0</ele><time>2026-04-26T15:30:49Z</time></trkpt><trkpt lat="43.86986495813501" lon="11.234007284820938"><ele>729.0</ele><time>2026-04-26T15:30:59Z</time></trkpt><trkpt lat="43.869868552540936" lon="11.234109350549005"><ele>729.0</ele><time>2026-04-26T15:31:14.999Z</time></trkpt><trkpt lat="43.86985390650957" lon="11.234203059323745"><ele>729.0</ele><time>2026-04-26T15:31:24.999Z</time></trkpt><trkpt lat="43.869857162717985" lon="11.234300839423415"><ele>729.0</ele><time>2026-04-26T15:31:35.999Z</time></trkpt><trkpt lat="43.86987163293171" lon="11.234406959256125"><ele>728.2857142857143</ele><time>2026-04-26T15:31:49.999Z</time></trkpt><trkpt lat="43.86988367717424" lon="11.234502308343316"><ele>727.5714285714286</ele><time>2026-04-26T15:32:01Z</time></trkpt><trkpt lat="43.86990224965711" lon="11.23460131700875"><ele>726.8571428571429</ele><time>2026-04-26T15:32:11Z</time></trkpt><trkpt lat="43.86991763253316" lon="11.234697233545917"><ele>726.1428571428571</ele><time>2026-04-26T15:32:21Z</time></trkpt><trkpt lat="43.869940771747736" lon="11.234780222301305"><ele>725.4285714285713</ele><time>2026-04-26T15:32:29Z</time></trkpt><trkpt lat="43.86995733268162" lon="11.234869010215242"><ele>724.7142857142857</ele><time>2026-04-26T15:32:38Z</time></trkpt><trkpt lat="43.86997156258085" lon="11.234962062331416"><ele>724.0</ele><time>2026-04-26T15:32:47Z</time></trkpt><trkpt lat="43.86998555345826" lon="11.23505177395986"><ele>724.0</ele><time>2026-04-26T15:32:58Z</time></trkpt><trkpt lat="43.87000110057466" lon="11.235145716538694"><ele>724.0</ele><time>2026-04-26T15:33:06.999Z</time></trkpt><trkpt lat="43.870016334501656" lon="11.235243192727372"><ele>724.0</ele><time>2026-04-26T15:33:14.999Z</time></trkpt><trkpt lat="43.87003625266413" lon="11.235328481410834"><ele>724.0</ele><time>2026-04-26T15:33:23.999Z</time></trkpt><trkpt lat="43.87004853555177" lon="11.235416817840502"><ele>724.0</ele><time>2026-04-26T15:33:36.999Z</time></trkpt><trkpt lat="43.87006017595174" lon="11.235503334067955"><ele>724.0</ele><time>2026-04-26T15:33:45.999Z</time></trkpt><trkpt lat="43.87007256147888" lon="11.23558941344428"><ele>724.0</ele><time>2026-04-26T15:34:09Z</time></trkpt><trkpt lat="43.8700868336975" lon="11.235681430686716"><ele>721.4285714285714</ele><time>2026-04-26T15:34:18Z</time></trkpt><trkpt lat="43.87010451484051" lon="11.235768561723464"><ele>718.8571428571429</ele><time>2026-04-26T15:34:27Z</time></trkpt><trkpt lat="43.87011919850968" lon="11.23586526704816"><ele>716.2857142857142</ele><time>2026-04-26T15:34:38Z</time></trkpt><trkpt lat="43.870139460435595" lon="11.235949385658204"><ele>713.7142857142858</ele><time>2026-04-26T15:34:46Z</time></trkpt><trkpt lat="43.87015018815466" lon="11.236036125830847"><ele>711.1428571428572</ele><time>2026-04-26T15:34:58Z</time></trkpt><trkpt lat="43.870160987757345" lon="11.236122522514568"><ele>708.5714285714286</ele><time>2026-04-26T15:35:06Z</time></trkpt><trkpt lat="43.870170586391815" lon="11.236218407308387"><ele>706.0</ele><time>2026-04-26T15:35:14.999Z</time></trkpt><trkpt lat="43.87016989999694" lon="11.236311364729817"><ele>705.4285714285714</ele><time>2026-04-26T15:35:28.999Z</time></trkpt><trkpt lat="43.870175562661416" lon="11.236411649740559"><ele>704.8571428571429</ele><time>2026-04-26T15:35:38.999Z</time></trkpt><trkpt lat="43.87016372617493" lon="11.23651407546847"><ele>704.2857142857143</ele><time>2026-04-26T15:35:46.999Z</time></trkpt><trkpt lat="43.87018361789591" lon="11.236610291067578"><ele>703.7142857142858</ele><time>2026-04-26T15:35:55.999Z</time></trkpt><trkpt lat="43.870180417301384" lon="11.236711069741366"><ele>703.1428571428571</ele><time>2026-04-26T15:36:06Z</time></trkpt><trkpt lat="43.87016826566468" lon="11.236805956773209"><ele>702.5714285714287</ele><time>2026-04-26T15:36:17Z</time></trkpt><trkpt lat="43.870135414422585" lon="11.236890939996663"><ele>702.0</ele><time>2026-04-26T15:36:27Z</time></trkpt><trkpt lat="43.870074548039135" lon="11.23693230106663"><ele>702.0000000000001</ele><time>2026-04-26T15:36:39Z</time></trkpt><trkpt lat="43.870014618153824" lon="11.236966442251234"><ele>702.0</ele><time>2026-04-26T15:36:48Z</time></trkpt><trkpt lat="43.86995762096568" lon="11.237010215500563"><ele>702.0</ele><time>2026-04-26T15:36:57Z</time></trkpt><trkpt lat="43.86989950429628" lon="11.237063443095392"><ele>702.0</ele><time>2026-04-26T15:37:04Z</time></trkpt><trkpt lat="43.86983822462884" lon="11.237111551060849"><ele>702.0</ele><time>2026-04-26T15:37:11.999Z</time></trkpt><trkpt lat="43.86978146658506" lon="11.237158720541398"><ele>702.0000000000001</ele><time>2026-04-26T15:37:19.999Z</time></trkpt><trkpt lat="43.869723656933196" lon="11.237195607759173"><ele>702.0</ele><time>2026-04-26T15:37:26.999Z</time></trkpt><trkpt lat="43.869661485521995" lon="11.237235185336543"><ele>702.0000000000001</ele><time>2026-04-26T15:37:33.999Z</time></trkpt><trkpt lat="43.869602972768696" lon="11.237273422157648"><ele>702.0</ele><time>2026-04-26T15:37:42.999Z</time></trkpt><trkpt lat="43.86954396263813" lon="11.23730532754477"><ele>702.0</ele><time>2026-04-26T15:37:51.999Z</time></trkpt><trkpt lat="43.8694911324106" lon="11.237356086430042"><ele>702.0</ele><time>2026-04-26T15:37:59.999Z</time></trkpt><trkpt lat="43.86943393004717" lon="11.237403765563885"><ele>702.0</ele><time>2026-04-26T15:38:07.999Z</time></trkpt><trkpt lat="43.869373391526665" lon="11.237448199015677"><ele>702.0000000000001</ele><time>2026-04-26T15:38:17Z</time></trkpt><trkpt lat="43.86931226737054" lon="11.237501590212531"><ele>702.0</ele><time>2026-04-26T15:38:25Z</time></trkpt><trkpt lat="43.8692485608414" lon="11.237540461488807"><ele>699.8571428571429</ele><time>2026-04-26T15:38:34Z</time></trkpt><trkpt lat="43.86919438212261" lon="11.237595839135594"><ele>697.7142857142858</ele><time>2026-04-26T15:38:42Z</time></trkpt><trkpt lat="43.869137391141734" lon="11.237639950650903"><ele>695.5714285714287</ele><time>2026-04-26T15:38:50Z</time></trkpt><trkpt lat="43.86907385464005" lon="11.237682701206394"><ele>693.4285714285714</ele><time>2026-04-26T15:38:59Z</time></trkpt><trkpt lat="43.869028962926755" lon="11.23774858339441"><ele>691.2857142857142</ele><time>2026-04-26T15:39:06.999Z</time></trkpt><trkpt lat="43.86897007315497" lon="11.237817432307995"><ele>689.1428571428572</ele><time>2026-04-26T15:39:15.999Z</time></trkpt><trkpt lat="43.868910727897465" lon="11.237867334811217"><ele>687.0</ele><time>2026-04-26T15:39:24.999Z</time></trkpt><trkpt lat="43.868867300532116" lon="11.237946312285924"><ele>687.0</ele><time>2026-04-26T15:39:34.999Z</time></trkpt><trkpt lat="43.86885556784552" lon="11.238039582704523"><ele>687.0</ele><time>2026-04-26T15:39:43.999Z</time></trkpt><trkpt lat="43.868824467217195" lon="11.238119167893219"><ele>687.0</ele><time>2026-04-26T15:39:52.999Z</time></trkpt><trkpt lat="43.86878362268974" lon="11.238193697789951"><ele>687.0</ele><time>2026-04-26T15:40:00.999Z</time></trkpt><trkpt lat="43.86874917424993" lon="11.23827799993721"><ele>687.0</ele><time>2026-04-26T15:40:07.999Z</time></trkpt><trkpt lat="43.868712337453644" lon="11.238355050790528"><ele>687.0</ele><time>2026-04-26T15:40:16Z</time></trkpt><trkpt lat="43.86868835248964" lon="11.238457563375734"><ele>687.0</ele><time>2026-04-26T15:40:24Z</time></trkpt><trkpt lat="43.868646776407324" lon="11.238534797553129"><ele>686.1428571428572</ele><time>2026-04-26T15:40:33Z</time></trkpt><trkpt lat="43.86858821357414" lon="11.238587486629708"><ele>685.2857142857142</ele><time>2026-04-26T15:40:40Z</time></trkpt><trkpt lat="43.86854306958424" lon="11.238649669837447"><ele>684.4285714285714</ele><time>2026-04-26T15:40:47Z</time></trkpt><trkpt lat="43.86849546843457" lon="11.2387080365877"><ele>683.5714285714287</ele><time>2026-04-26T15:40:55Z</time></trkpt><trkpt lat="43.8684332324449" lon="11.238756607085806"><ele>682.7142857142858</ele><time>2026-04-26T15:41:02Z</time></trkpt><trkpt lat="43.86837107898375" lon="11.23881018580379"><ele>681.8571428571429</ele><time>2026-04-26T15:41:10Z</time></trkpt><trkpt lat="43.868310114743274" lon="11.238834478947782"><ele>681.0</ele><time>2026-04-26T15:41:15.999Z</time></trkpt><trkpt lat="43.86824565156772" lon="11.238857963349556"><ele>681.0000000000001</ele><time>2026-04-26T15:41:22.999Z</time></trkpt><trkpt lat="43.868181681363936" lon="11.238887801537032"><ele>681.0</ele><time>2026-04-26T15:41:29.999Z</time></trkpt><trkpt lat="43.86811863206484" lon="11.238918051594425"><ele>681.0</ele><time>2026-04-26T15:41:37.999Z</time></trkpt><trkpt lat="43.86805595033799" lon="11.23894901731635"><ele>681.0</ele><time>2026-04-26T15:41:44.999Z</time></trkpt><trkpt lat="43.86798856535264" lon="11.238974442061036"><ele>681.0</ele><time>2026-04-26T15:41:53.999Z</time></trkpt><trkpt lat="43.86792479687115" lon="11.2390062175483"><ele>681.0000000000001</ele><time>2026-04-26T15:42:01.999Z</time></trkpt><trkpt lat="43.86785691613099" lon="11.239039489949313"><ele>681.0</ele><time>2026-04-26T15:42:09.999Z</time></trkpt><trkpt lat="43.86778988806642" lon="11.239070790193036"><ele>681.1428571428572</ele><time>2026-04-26T15:42:18.999Z</time></trkpt><trkpt lat="43.86772611413231" lon="11.239105523842952"><ele>681.2857142857143</ele><time>2026-04-26T15:42:26Z</time></trkpt><trkpt lat="43.867656985242036" lon="11.239122710650681"><ele>681.4285714285714</ele><time>2026-04-26T15:42:35Z</time></trkpt><trkpt lat="43.8675918170311" lon="11.239157078308434"><ele>681.5714285714287</ele><time>2026-04-26T15:42:43Z</time></trkpt><trkpt lat="43.8675187086153" lon="11.23918218211324"><ele>681.7142857142858</ele><time>2026-04-26T15:42:51Z</time></trkpt><trkpt lat="43.867450732107265" lon="11.239194038275045"><ele>681.8571428571429</ele><time>2026-04-26T15:43:00Z</time></trkpt><trkpt lat="43.86738453787323" lon="11.239216510548422"><ele>682.0</ele><time>2026-04-26T15:43:23.999Z</time></trkpt><trkpt lat="43.86732158149027" lon="11.239240669421838"><ele>682.0</ele><time>2026-04-26T15:43:35.999Z</time></trkpt><trkpt lat="43.86725785866874" lon="11.23923020999452"><ele>682.0</ele><time>2026-04-26T15:43:40.999Z</time></trkpt><trkpt lat="43.86718659081037" lon="11.239239417152403"><ele>682.0</ele><time>2026-04-26T15:43:46.999Z</time></trkpt><trkpt lat="43.867115294913674" lon="11.239236769817955"><ele>682.0</ele><time>2026-04-26T15:43:52.999Z</time></trkpt><trkpt lat="43.867043801402026" lon="11.239225148526213"><ele>682.0</ele><time>2026-04-26T15:44:00.999Z</time></trkpt><trkpt lat="43.86697082098425" lon="11.239225797559786"><ele>682.0</ele><time>2026-04-26T15:44:07.999Z</time></trkpt><trkpt lat="43.866905335721746" lon="11.239218604279372"><ele>682.0</ele><time>2026-04-26T15:44:15.999Z</time></trkpt><trkpt lat="43.86683401551165" lon="11.239200478741868"><ele>681.7142857142857</ele><time>2026-04-26T15:44:23.999Z</time></trkpt><trkpt lat="43.86676872811268" lon="11.239220534246444"><ele>681.4285714285714</ele><time>2026-04-26T15:44:31Z</time></trkpt><trkpt lat="43.86669900779286" lon="11.239256987207796"><ele>681.1428571428571</ele><time>2026-04-26T15:44:39Z</time></trkpt><trkpt lat="43.866631823155316" lon="11.23926575358572"><ele>680.8571428571429</ele><time>2026-04-26T15:44:47Z</time></trkpt><trkpt lat="43.86656767008278" lon="11.2392856949131"><ele>680.5714285714286</ele><time>2026-04-26T15:44:54Z</time></trkpt><trkpt lat="43.866513272705234" lon="11.239336087613525"><ele>680.2857142857143</ele><time>2026-04-26T15:45:01Z</time></trkpt><trkpt lat="43.866457621506456" lon="11.239389556635505"><ele>680.0</ele><time>2026-04-26T15:45:09Z</time></trkpt><trkpt lat="43.866407736367144" lon="11.239452142707377"><ele>680.0</ele><time>2026-04-26T15:45:17.999Z</time></trkpt><trkpt lat="43.86638200818699" lon="11.239540820988912"><ele>680.0</ele><time>2026-04-26T15:45:26.999Z</time></trkpt><trkpt lat="43.86634122880758" lon="11.239612081538368"><ele>680.0</ele><time>2026-04-26T15:45:35.999Z</time></trkpt><trkpt lat="43.866310749726786" lon="11.23969970625704"><ele>680.0</ele><time>2026-04-26T15:45:47.999Z</time></trkpt><trkpt lat="43.86627293914275" lon="11.23977729811924"><ele>680.0</ele><time>2026-04-26T15:45:57.999Z</time></trkpt><trkpt lat="43.866261860772255" lon="11.239874433985111"><ele>680.0</ele><time>2026-04-26T15:46:07.999Z</time></trkpt><trkpt lat="43.86622876217071" lon="11.239964406392234"><ele>680.0</ele><time>2026-04-26T15:46:15.999Z</time></trkpt><trkpt lat="43.866226224790445" lon="11.240052900125177"><ele>680.4285714285714</ele><time>2026-04-26T15:46:28.999Z</time></trkpt><trkpt lat="43.866201668796236" lon="11.240141959791993"><ele>680.8571428571428</ele><time>2026-04-26T15:46:39Z</time></trkpt><trkpt lat="43.86613301526081" lon="11.240173252721052"><ele>681.2857142857142</ele><time>2026-04-26T15:47:01Z</time></trkpt><trkpt lat="43.866083981512325" lon="11.240235458482726"><ele>681.7142857142858</ele><time>2026-04-26T15:47:08Z</time></trkpt><trkpt lat="43.86602246406924" lon="11.240269730311647"><ele>682.1428571428571</ele><time>2026-04-26T15:47:15Z</time></trkpt><trkpt lat="43.865969843798396" lon="11.240324702639167"><ele>682.5714285714286</ele><time>2026-04-26T15:47:22Z</time></trkpt><trkpt lat="43.865906906359385" lon="11.240356699503922"><ele>683.0</ele><time>2026-04-26T15:47:27.999Z</time></trkpt><trkpt lat="43.86583744872641" lon="11.24038185495221"><ele>681.4285714285714</ele><time>2026-04-26T15:47:35.999Z</time></trkpt><trkpt lat="43.86577549591581" lon="11.24036271968115"><ele>679.8571428571429</ele><time>2026-04-26T15:47:43.999Z</time></trkpt><trkpt lat="43.865712270235534" lon="11.240371598491684"><ele>678.2857142857142</ele><time>2026-04-26T15:47:52.999Z</time></trkpt><trkpt lat="43.86564172102369" lon="11.240369714593989"><ele>676.7142857142858</ele><time>2026-04-26T15:48:00.999Z</time></trkpt><trkpt lat="43.865579282163125" lon="11.240385962686721"><ele>675.1428571428571</ele><time>2026-04-26T15:48:07.999Z</time></trkpt><trkpt lat="43.86551518193183" lon="11.24039421031654"><ele>673.5714285714286</ele><time>2026-04-26T15:48:15.999Z</time></trkpt><trkpt lat="43.865448287523726" lon="11.240386103057029"><ele>672.0</ele><time>2026-04-26T15:48:24.999Z</time></trkpt><trkpt lat="43.86538356897454" lon="11.240372597460311"><ele>672.0</ele><time>2026-04-26T15:48:31.999Z</time></trkpt><trkpt lat="43.86532139257188" lon="11.240352356857414"><ele>672.0</ele><time>2026-04-26T15:48:39Z</time></trkpt><trkpt lat="43.865251927098086" lon="11.240349231165677"><ele>672.0</ele><time>2026-04-26T15:48:47Z</time></trkpt><trkpt lat="43.86518316546405" lon="11.240316447560332"><ele>672.0</ele><time>2026-04-26T15:48:55Z</time></trkpt><trkpt lat="43.86510420867722" lon="11.240320685837817"><ele>672.0</ele><time>2026-04-26T15:49:01Z</time></trkpt><trkpt lat="43.86503658819357" lon="11.240361475074609"><ele>672.0</ele><time>2026-04-26T15:49:11Z</time></trkpt><trkpt lat="43.86496912398986" lon="11.240353063579297"><ele>672.0</ele><time>2026-04-26T15:49:19Z</time></trkpt><trkpt lat="43.86490160849392" lon="11.24034454012304"><ele>670.2857142857143</ele><time>2026-04-26T15:49:27Z</time></trkpt><trkpt lat="43.864838305029906" lon="11.240346121433923"><ele>668.5714285714286</ele><time>2026-04-26T15:49:34Z</time></trkpt><trkpt lat="43.86477256251852" lon="11.24033195927171"><ele>666.8571428571429</ele><time>2026-04-26T15:49:41.999Z</time></trkpt><trkpt lat="43.86470253859797" lon="11.24032141602933"><ele>665.1428571428571</ele><time>2026-04-26T15:49:49.999Z</time></trkpt><trkpt lat="43.86463739942594" lon="11.240311503527112"><ele>663.4285714285714</ele><time>2026-04-26T15:49:57.999Z</time></trkpt><trkpt lat="43.864570203363634" lon="11.24032797381476"><ele>661.7142857142858</ele><time>2026-04-26T15:50:04.999Z</time></trkpt><trkpt lat="43.86450388403556" lon="11.24033531336776"><ele>660.0</ele><time>2026-04-26T15:50:12.999Z</time></trkpt><trkpt lat="43.864443916803324" lon="11.240305507489296"><ele>660.0000000000001</ele><time>2026-04-26T15:50:19.999Z</time></trkpt><trkpt lat="43.8643792267216" lon="11.24031021770391"><ele>660.0</ele><time>2026-04-26T15:50:28.999Z</time></trkpt><trkpt lat="43.864310603072795" lon="11.240307257342714"><ele>660.0</ele><time>2026-04-26T15:50:31.999Z</time></trkpt><trkpt lat="43.864249142823866" lon="11.24033616643187"><ele>660.0</ele><time>2026-04-26T15:50:54Z</time></trkpt><trkpt lat="43.86418425437991" lon="11.24031616911449"><ele>660.0</ele><time>2026-04-26T15:51:02Z</time></trkpt><trkpt lat="43.86411528210322" lon="11.240304660361918"><ele>660.0000000000001</ele><time>2026-04-26T15:51:09Z</time></trkpt><trkpt lat="43.86405221370375" lon="11.240308678884274"><ele>660.0</ele><time>2026-04-26T15:51:29Z</time></trkpt><trkpt lat="43.86398845468021" lon="11.240282803411695"><ele>659.7142857142858</ele><time>2026-04-26T15:51:36Z</time></trkpt><trkpt lat="43.86392136291115" lon="11.240261784878465"><ele>659.4285714285714</ele><time>2026-04-26T15:51:43.999Z</time></trkpt><trkpt lat="43.863858486791656" lon="11.240243775131967"><ele>659.1428571428571</ele><time>2026-04-26T15:51:51.999Z</time></trkpt><trkpt lat="43.86379580909674" lon="11.240232287964936"><ele>658.8571428571429</ele><time>2026-04-26T15:51:59.999Z</time></trkpt><trkpt lat="43.86373106350189" lon="11.240198251486863"><ele>658.5714285714286</ele><time>2026-04-26T15:52:07.999Z</time></trkpt><trkpt lat="43.863660978583134" lon="11.240178223159056"><ele>658.2857142857143</ele><time>2026-04-26T15:52:14.999Z</time></trkpt><trkpt lat="43.86358739703056" lon="11.24016179179112"><ele>658.0</ele><time>2026-04-26T15:52:21.999Z</time></trkpt><trkpt lat="43.86352053416659" lon="11.240155413956627"><ele>658.0</ele><time>2026-04-26T15:52:28.999Z</time></trkpt><trkpt lat="43.86345456685703" lon="11.240142590412214"><ele>658.0</ele><time>2026-04-26T15:52:35.999Z</time></trkpt><trkpt lat="43.86338960068487" lon="11.240140733635572"><ele>658.0</ele><time>2026-04-26T15:52:42.999Z</time></trkpt><trkpt lat="43.863324089803854" lon="11.24015278645644"><ele>658.0</ele><time>2026-04-26T15:52:49.999Z</time></trkpt><trkpt lat="43.86325607717212" lon="11.240145676554988"><ele>658.0</ele><time>2026-04-26T15:52:57Z</time></trkpt><trkpt lat="43.8631872492458" lon="11.24012311598431"><ele>658.0</ele><time>2026-04-26T15:53:05Z</time></trkpt><trkpt lat="43.86311996574797" lon="11.240118140881284"><ele>658.0</ele><time>2026-04-26T15:53:13Z</time></trkpt><trkpt lat="43.86305450834003" lon="11.240115433908944"><ele>658.0</ele><time>2026-04-26T15:53:20Z</time></trkpt><trkpt lat="43.8629921597553" lon="11.24014587175087"><ele>658.0</ele><time>2026-04-26T15:53:27Z</time></trkpt><trkpt lat="43.86292761178415" lon="11.240142038773643"><ele>658.0</ele><time>2026-04-26T15:53:34Z</time></trkpt><trkpt lat="43.862857159836366" lon="11.240147065170955"><ele>658.0</ele><time>2026-04-26T15:53:42Z</time></trkpt><trkpt lat="43.862788891409465" lon="11.24013522028496"><ele>658.0</ele><time>2026-04-26T15:53:50Z</time></trkpt><trkpt lat="43.862722374084484" lon="11.240141753818849"><ele>658.0</ele><time>2026-04-26T15:53:56.999Z</time></trkpt><trkpt lat="43.862641561625466" lon="11.240073655097296"><ele>658.0</ele><time>2026-04-26T15:54:04.999Z</time></trkpt><trkpt lat="43.862579931079246" lon="11.240101776668528"><ele>658.5714285714286</ele><time>2026-04-26T15:54:14.999Z</time></trkpt><trkpt lat="43.862522948700146" lon="11.240060930998693"><ele>659.1428571428571</ele><time>2026-04-26T15:54:23.999Z</time></trkpt><trkpt lat="43.86248920039148" lon="11.239976454091614"><ele>659.7142857142858</ele><time>2026-04-26T15:54:33.999Z</time></trkpt><trkpt lat="43.86242218554031" lon="11.239997425148884"><ele>660.2857142857142</ele><time>2026-04-26T15:54:40.999Z</time></trkpt><trkpt lat="43.862354293582975" lon="11.239990530805745"><ele>660.8571428571429</ele><time>2026-04-26T15:54:49.999Z</time></trkpt><trkpt lat="43.862288079117754" lon="11.239994040328254"><ele>661.4285714285714</ele><time>2026-04-26T15:54:59Z</time></trkpt><trkpt lat="43.862224694477696" lon="11.239972551680907"><ele>662.0</ele><time>2026-04-26T15:55:07Z</time></trkpt><trkpt lat="43.86215755974528" lon="11.2399639837068"><ele>662.0</ele><time>2026-04-26T15:55:14Z</time></trkpt><trkpt lat="43.862094481523435" lon="11.239958578128663"><ele>662.0</ele><time>2026-04-26T15:55:21Z</time></trkpt><trkpt lat="43.86202804642451" lon="11.239920586736611"><ele>662.0</ele><time>2026-04-26T15:55:30Z</time></trkpt><trkpt lat="43.86196495642925" lon="11.239903303284773"><ele>662.0</ele><time>2026-04-26T15:55:38Z</time></trkpt><trkpt lat="43.861900484778964" lon="11.239899195976987"><ele>662.0</ele><time>2026-04-26T15:55:45Z</time></trkpt><trkpt lat="43.861836102953575" lon="11.239869653918102"><ele>662.0</ele><time>2026-04-26T15:55:53Z</time></trkpt><trkpt lat="43.8617627253447" lon="11.239863592738102"><ele>662.0</ele><time>2026-04-26T15:55:59.999Z</time></trkpt><trkpt lat="43.861696996692295" lon="11.239865469077772"><ele>662.8571428571429</ele><time>2026-04-26T15:56:07.999Z</time></trkpt><trkpt lat="43.86163055466366" lon="11.239841624775972"><ele>663.7142857142857</ele><time>2026-04-26T15:56:14.999Z</time></trkpt><trkpt lat="43.86157461101305" lon="11.239787119970018"><ele>664.5714285714286</ele><time>2026-04-26T15:56:21.999Z</time></trkpt><trkpt lat="43.86150536492783" lon="11.23975675862461"><ele>665.4285714285714</ele><time>2026-04-26T15:56:29.999Z</time></trkpt><trkpt lat="43.86145490105278" lon="11.239695535171077"><ele>666.2857142857143</ele><time>2026-04-26T15:56:37.999Z</time></trkpt><trkpt lat="43.8613997784026" lon="11.239645487642019"><ele>667.1428571428571</ele><time>2026-04-26T15:56:45.999Z</time></trkpt><trkpt lat="43.86133836805244" lon="11.23959620960681"><ele>668.0</ele><time>2026-04-26T15:56:53.999Z</time></trkpt><trkpt lat="43.86126905999606" lon="11.239578198908394"><ele>664.8571428571429</ele><time>2026-04-26T15:57:04Z</time></trkpt><trkpt lat="43.86119805237395" lon="11.239567123624214"><ele>661.7142857142858</ele><time>2026-04-26T15:57:13Z</time></trkpt><trkpt lat="43.861132191660765" lon="11.23955793550774"><ele>658.5714285714287</ele><time>2026-04-26T15:57:21Z</time></trkpt><trkpt lat="43.86106063770791" lon="11.23956786514275"><ele>655.4285714285714</ele><time>2026-04-26T15:57:30Z</time></trkpt><trkpt lat="43.86099541217436" lon="11.239586128323278"><ele>652.2857142857143</ele><time>2026-04-26T15:57:38Z</time></trkpt><trkpt lat="43.86092421732602" lon="11.239602662600928"><ele>649.1428571428572</ele><time>2026-04-26T15:57:46Z</time></trkpt><trkpt lat="43.86085976860124" lon="11.239605689060255"><ele>646.0</ele><time>2026-04-26T15:57:53Z</time></trkpt><trkpt lat="43.86079278235686" lon="11.239612966907233"><ele>646.0000000000001</ele><time>2026-04-26T15:58:01.999Z</time></trkpt><trkpt lat="43.860728602918655" lon="11.23960983440855"><ele>646.0</ele><time>2026-04-26T15:58:09.999Z</time></trkpt><trkpt lat="43.86065895941814" lon="11.239612241049072"><ele>646.0</ele><time>2026-04-26T15:58:18.999Z</time></trkpt><trkpt lat="43.86059040814048" lon="11.239620350418686"><ele>646.0</ele><time>2026-04-26T15:58:26.999Z</time></trkpt><trkpt lat="43.860517963994425" lon="11.23964053866403"><ele>646.0</ele><time>2026-04-26T15:58:33.999Z</time></trkpt><trkpt lat="43.860442788817174" lon="11.239637991212076"><ele>646.0000000000001</ele><time>2026-04-26T15:58:45.999Z</time></trkpt><trkpt lat="43.86037292434941" lon="11.239659637638061"><ele>646.0</ele><time>2026-04-26T15:59:42Z</time></trkpt><trkpt lat="43.860308108369004" lon="11.239698035183972"><ele>646.0000000000001</ele><time>2026-04-26T15:59:48Z</time></trkpt><trkpt lat="43.86024157635386" lon="11.239717290819407"><ele>646.0</ele><time>2026-04-26T15:59:55Z</time></trkpt><trkpt lat="43.86016604274815" lon="11.239736994697047"><ele>646.0</ele><time>2026-04-26T16:00:02Z</time></trkpt><trkpt lat="43.86009793206333" lon="11.239720555668393"><ele>646.0</ele><time>2026-04-26T16:00:09.999Z</time></trkpt><trkpt lat="43.86003183458699" lon="11.239736174769135"><ele>646.0</ele><time>2026-04-26T16:00:22.999Z</time></trkpt><trkpt lat="43.85996101200947" lon="11.239717742912505"><ele>646.0000000000001</ele><time>2026-04-26T16:00:30.999Z</time></trkpt><trkpt lat="43.85989745159997" lon="11.239691028694203"><ele>646.0</ele><time>2026-04-26T16:00:38.999Z</time></trkpt><trkpt lat="43.85982991074193" lon="11.239686708262532"><ele>646.1428571428572</ele><time>2026-04-26T16:00:45.999Z</time></trkpt><trkpt lat="43.85975595203199" lon="11.239687889782715"><ele>646.2857142857143</ele><time>2026-04-26T16:00:54.999Z</time></trkpt><trkpt lat="43.85968948480124" lon="11.239688572280206"><ele>646.4285714285714</ele><time>2026-04-26T16:01:02.999Z</time></trkpt><trkpt lat="43.85962231786563" lon="11.239707541514472"><ele>646.5714285714287</ele><time>2026-04-26T16:01:10.999Z</time></trkpt><trkpt lat="43.85955443625077" lon="11.23969398763552"><ele>646.7142857142858</ele><time>2026-04-26T16:01:29Z</time></trkpt><trkpt lat="43.85948583174286" lon="11.239716573261628"><ele>646.8571428571429</ele><time>2026-04-26T16:01:38Z</time></trkpt><trkpt lat="43.85941358287512" lon="11.239744347310536"><ele>647.0</ele><time>2026-04-26T16:01:52Z</time></trkpt><trkpt lat="43.859347191385694" lon="11.239757827458588"><ele>647.1428571428571</ele><time>2026-04-26T16:01:59Z</time></trkpt><trkpt lat="43.85927481898848" lon="11.239794155661587"><ele>647.2857142857143</ele><time>2026-04-26T16:02:09.999Z</time></trkpt><trkpt lat="43.859205117902924" lon="11.239811360734302"><ele>647.4285714285714</ele><time>2026-04-26T16:02:17.999Z</time></trkpt><trkpt lat="43.85914264588916" lon="11.239823039160907"><ele>647.5714285714286</ele><time>2026-04-26T16:02:24.999Z</time></trkpt><trkpt lat="43.85907857642133" lon="11.23983242888198"><ele>647.7142857142857</ele><time>2026-04-26T16:02:31.999Z</time></trkpt><trkpt lat="43.859012075778615" lon="11.239837974288863"><ele>647.8571428571429</ele><time>2026-04-26T16:02:38.999Z</time></trkpt><trkpt lat="43.858946500315" lon="11.23985873275963"><ele>648.0</ele><time>2026-04-26T16:02:45.999Z</time></trkpt><trkpt lat="43.85887853831121" lon="11.239857071983431"><ele>648.0</ele><time>2026-04-26T16:02:52.999Z</time></trkpt><trkpt lat="43.85881146246199" lon="11.23987372217846"><ele>648.0</ele><time>2026-04-26T16:02:59.999Z</time></trkpt><trkpt lat="43.85874212447037" lon="11.239878238958516"><ele>648.0</ele><time>2026-04-26T16:03:07.999Z</time></trkpt><trkpt lat="43.858679055349846" lon="11.239886549991729"><ele>648.0</ele><time>2026-04-26T16:03:14.999Z</time></trkpt><trkpt lat="43.85860869016984" lon="11.239912080567711"><ele>648.0</ele><time>2026-04-26T16:03:23Z</time></trkpt><trkpt lat="43.85854093495409" lon="11.239929655059195"><ele>648.0</ele><time>2026-04-26T16:03:30Z</time></trkpt><trkpt lat="43.85847587436678" lon="11.239959796298514"><ele>648.0</ele><time>2026-04-26T16:03:37Z</time></trkpt><trkpt lat="43.85840555715228" lon="11.23998598979697"><ele>648.1428571428571</ele><time>2026-04-26T16:03:45Z</time></trkpt><trkpt lat="43.858347738741955" lon="11.24002619022747"><ele>648.2857142857142</ele><time>2026-04-26T16:03:52Z</time></trkpt><trkpt lat="43.85828593893273" lon="11.24006964434087"><ele>648.4285714285713</ele><time>2026-04-26T16:03:59Z</time></trkpt><trkpt lat="43.858220582412635" lon="11.240105519973135"><ele>648.5714285714286</ele><time>2026-04-26T16:04:07Z</time></trkpt><trkpt lat="43.858166885097546" lon="11.240152236294369"><ele>648.7142857142857</ele><time>2026-04-26T16:04:13.999Z</time></trkpt><trkpt lat="43.85811661769998" lon="11.24020923883603"><ele>648.8571428571428</ele><time>2026-04-26T16:04:20.999Z</time></trkpt><trkpt lat="43.858068071186" lon="11.240274864408466"><ele>649.0</ele><time>2026-04-26T16:04:28.999Z</time></trkpt><trkpt lat="43.85803109510092" lon="11.240349397944929"><ele>648.9999999999999</ele><time>2026-04-26T16:04:36.999Z</time></trkpt><trkpt lat="43.857978520362344" lon="11.240414238768766"><ele>649.0</ele><time>2026-04-26T16:04:44.999Z</time></trkpt><trkpt lat="43.85793561859147" lon="11.240484736611045"><ele>649.0</ele><time>2026-04-26T16:04:53.999Z</time></trkpt><trkpt lat="43.8578859775409" lon="11.240552457609375"><ele>649.0</ele><time>2026-04-26T16:05:00.999Z</time></trkpt><trkpt lat="43.85784348308393" lon="11.240630703164618"><ele>649.0</ele><time>2026-04-26T16:05:08.999Z</time></trkpt><trkpt lat="43.857791750922445" lon="11.240700306513187"><ele>648.9999999999999</ele><time>2026-04-26T16:05:15.999Z</time></trkpt><trkpt lat="43.857735202622614" lon="11.24075321863825"><ele>649.0</ele><time>2026-04-26T16:05:22.999Z</time></trkpt><trkpt lat="43.85766963632368" lon="11.240789555268417"><ele>648.1428571428571</ele><time>2026-04-26T16:05:31Z</time></trkpt><trkpt lat="43.857596147102974" lon="11.240802409634906"><ele>647.2857142857142</ele><time>2026-04-26T16:05:39Z</time></trkpt><trkpt lat="43.857533123925386" lon="11.240798709183409"><ele>646.4285714285713</ele><time>2026-04-26T16:05:46Z</time></trkpt><trkpt lat="43.8574615570259" lon="11.24078242383128"><ele>645.5714285714286</ele><time>2026-04-26T16:05:54Z</time></trkpt><trkpt lat="43.85739449123371" lon="11.240752243737237"><ele>644.7142857142858</ele><time>2026-04-26T16:06:01Z</time></trkpt><trkpt lat="43.857339849317064" lon="11.240705653650272"><ele>643.8571428571428</ele><time>2026-04-26T16:06:07Z</time></trkpt><trkpt lat="43.85728030912208" lon="11.240675698342471"><ele>643.0</ele><time>2026-04-26T16:06:14Z</time></trkpt><trkpt lat="43.85721370642022" lon="11.240634448375332"><ele>644.7142857142857</ele><time>2026-04-26T16:06:22Z</time></trkpt><trkpt lat="43.85715568111544" lon="11.240599389356488"><ele>646.4285714285714</ele><time>2026-04-26T16:06:29Z</time></trkpt><trkpt lat="43.85709811849933" lon="11.240538153556084"><ele>648.1428571428571</ele><time>2026-04-26T16:06:36.999Z</time></trkpt><trkpt lat="43.857035386537625" lon="11.240480941661714"><ele>649.8571428571429</ele><time>2026-04-26T16:06:44.999Z</time></trkpt><trkpt lat="43.856979408529696" lon="11.240426857085607"><ele>651.5714285714286</ele><time>2026-04-26T16:06:51.999Z</time></trkpt><trkpt lat="43.85692253239281" lon="11.240381814516477"><ele>653.2857142857143</ele><time>2026-04-26T16:06:58.999Z</time></trkpt><trkpt lat="43.85686682319415" lon="11.24033961692088"><ele>655.0</ele><time>2026-04-26T16:07:05.999Z</time></trkpt><trkpt lat="43.85681082428486" lon="11.24028557473448"><ele>654.1428571428571</ele><time>2026-04-26T16:07:12.999Z</time></trkpt><trkpt lat="43.85674659147881" lon="11.240246760095319"><ele>653.2857142857142</ele><time>2026-04-26T16:07:19.999Z</time></trkpt><trkpt lat="43.856675516075455" lon="11.240229290727806"><ele>652.4285714285713</ele><time>2026-04-26T16:07:26.999Z</time></trkpt><trkpt lat="43.85661428480507" lon="11.24020366764637"><ele>651.5714285714286</ele><time>2026-04-26T16:07:34Z</time></trkpt><trkpt lat="43.85654952775121" lon="11.240178095010425"><ele>650.7142857142857</ele><time>2026-04-26T16:07:42Z</time></trkpt><trkpt lat="43.85648689994244" lon="11.240155678976965"><ele>649.8571428571428</ele><time>2026-04-26T16:07:49Z</time></trkpt><trkpt lat="43.85642360334689" lon="11.240145833373965"><ele>649.0</ele><time>2026-04-26T16:07:55Z</time></trkpt><trkpt lat="43.8563567787897" lon="11.240123984559725"><ele>648.9999999999999</ele><time>2026-04-26T16:08:02Z</time></trkpt><trkpt lat="43.85629026730323" lon="11.240100079308917"><ele>649.0</ele><time>2026-04-26T16:08:09Z</time></trkpt><trkpt lat="43.85623071747145" lon="11.24006455894419"><ele>649.0</ele><time>2026-04-26T16:08:16Z</time></trkpt><trkpt lat="43.85616569057636" lon="11.240040769017053"><ele>649.0</ele><time>2026-04-26T16:08:23Z</time></trkpt><trkpt lat="43.85609943672224" lon="11.240000367961235"><ele>649.0</ele><time>2026-04-26T16:08:30Z</time></trkpt><trkpt lat="43.85603055113252" lon="11.239955930617137"><ele>648.9999999999999</ele><time>2026-04-26T16:08:37.999Z</time></trkpt><trkpt lat="43.85595513136666" lon="11.239918129293509"><ele>649.0</ele><time>2026-04-26T16:08:54.999Z</time></trkpt><trkpt lat="43.85590455786304" lon="11.239851683110809"><ele>647.8571428571428</ele><time>2026-04-26T16:09:01.999Z</time></trkpt><trkpt lat="43.85585685112234" lon="11.239788258585126"><ele>646.7142857142857</ele><time>2026-04-26T16:09:09.999Z</time></trkpt><trkpt lat="43.85580364023232" lon="11.239720650937354"><ele>645.5714285714286</ele><time>2026-04-26T16:09:16.999Z</time></trkpt><trkpt lat="43.85575375753785" lon="11.23966262435492"><ele>644.4285714285713</ele><time>2026-04-26T16:09:22.999Z</time></trkpt><trkpt lat="43.85570260830158" lon="11.239597753690381"><ele>643.2857142857142</ele><time>2026-04-26T16:09:35.999Z</time></trkpt><trkpt lat="43.85564871681129" lon="11.239531916745507"><ele>642.1428571428571</ele><time>2026-04-26T16:09:43Z</time></trkpt><trkpt lat="43.855601533995234" lon="11.239473853168947"><ele>641.0</ele><time>2026-04-26T16:09:49Z</time></trkpt><trkpt lat="43.85554929952081" lon="11.239415177870548"><ele>641.0</ele><time>2026-04-26T16:09:56Z</time></trkpt><trkpt lat="43.855490744101395" lon="11.239364809269597"><ele>641.0</ele><time>2026-04-26T16:10:03Z</time></trkpt><trkpt lat="43.8554287342897" lon="11.239320658535439"><ele>641.0</ele><time>2026-04-26T16:10:10Z</time></trkpt><trkpt lat="43.85537027270698" lon="11.23927093844226"><ele>641.0</ele><time>2026-04-26T16:10:17Z</time></trkpt><trkpt lat="43.855313591429386" lon="11.23922214502711"><ele>641.0</ele><time>2026-04-26T16:10:24Z</time></trkpt><trkpt lat="43.85525596518967" lon="11.239168795888363"><ele>641.0</ele><time>2026-04-26T16:10:31Z</time></trkpt><trkpt lat="43.85520301234259" lon="11.23911734808138"><ele>641.0</ele><time>2026-04-26T16:10:37.999Z</time></trkpt><trkpt lat="43.855146876184676" lon="11.239064591281565"><ele>640.5714285714286</ele><time>2026-04-26T16:10:44.999Z</time></trkpt><trkpt lat="43.85508650535112" lon="11.23902759827816"><ele>640.1428571428571</ele><time>2026-04-26T16:10:51.999Z</time></trkpt><trkpt lat="43.855029808866966" lon="11.238981874200427"><ele>639.7142857142858</ele><time>2026-04-26T16:10:58.999Z</time></trkpt><trkpt lat="43.85497048744049" lon="11.238948568709828"><ele>639.2857142857142</ele><time>2026-04-26T16:11:05.999Z</time></trkpt><trkpt lat="43.85490833394606" lon="11.238907882884178"><ele>638.8571428571428</ele><time>2026-04-26T16:11:13.999Z</time></trkpt><trkpt lat="43.8548458004157" lon="11.23887658900729"><ele>638.4285714285714</ele><time>2026-04-26T16:11:21.999Z</time></trkpt><trkpt lat="43.85478261947998" lon="11.238840352527305"><ele>638.0</ele><time>2026-04-26T16:11:33.999Z</time></trkpt><trkpt lat="43.85472160708914" lon="11.238809853911023"><ele>635.7142857142858</ele><time>2026-04-26T16:11:40.999Z</time></trkpt><trkpt lat="43.85465574391426" lon="11.238772571534943"><ele>633.4285714285713</ele><time>2026-04-26T16:11:49Z</time></trkpt><trkpt lat="43.85460673667922" lon="11.238711045100095"><ele>631.1428571428571</ele><time>2026-04-26T16:11:56Z</time></trkpt><trkpt lat="43.854552029315855" lon="11.238666607521"><ele>628.8571428571429</ele><time>2026-04-26T16:12:03Z</time></trkpt><trkpt lat="43.85449074617765" lon="11.238622584966482"><ele>626.5714285714287</ele><time>2026-04-26T16:12:11Z</time></trkpt><trkpt lat="43.8544345403849" lon="11.238581928202155"><ele>624.2857142857142</ele><time>2026-04-26T16:12:18Z</time></trkpt><trkpt lat="43.85437799069423" lon="11.238521765704789"><ele>622.0</ele><time>2026-04-26T16:12:26Z</time></trkpt><trkpt lat="43.85431157835697" lon="11.238482921650501"><ele>622.7142857142857</ele><time>2026-04-26T16:12:33.999Z</time></trkpt><trkpt lat="43.85425450843371" lon="11.238444881404902"><ele>623.4285714285714</ele><time>2026-04-26T16:12:40.999Z</time></trkpt><trkpt lat="43.85419446675127" lon="11.238401451227078"><ele>624.1428571428571</ele><time>2026-04-26T16:12:48.999Z</time></trkpt><trkpt lat="43.854140687312466" lon="11.238354749862323"><ele>624.8571428571429</ele><time>2026-04-26T16:12:56.999Z</time></trkpt><trkpt lat="43.85407898278144" lon="11.238315378297015"><ele>625.5714285714286</ele><time>2026-04-26T16:13:04.999Z</time></trkpt><trkpt lat="43.85401670674271" lon="11.238265233900165"><ele>626.2857142857143</ele><time>2026-04-26T16:13:12.999Z</time></trkpt><trkpt lat="43.85394562384763" lon="11.238232567462115"><ele>627.0</ele><time>2026-04-26T16:13:21.999Z</time></trkpt><trkpt lat="43.853881605538" lon="11.238187730337405"><ele>627.0</ele><time>2026-04-26T16:13:29.999Z</time></trkpt><trkpt lat="43.85382528704604" lon="11.238146478459354"><ele>627.0</ele><time>2026-04-26T16:13:37.999Z</time></trkpt><trkpt lat="43.85375672233789" lon="11.238131356958878"><ele>627.0</ele><time>2026-04-26T16:13:46.999Z</time></trkpt><trkpt lat="43.85368684245626" lon="11.238109558136122"><ele>627.0</ele><time>2026-04-26T16:13:55Z</time></trkpt><trkpt lat="43.85361529270064" lon="11.238093707677582"><ele>627.0</ele><time>2026-04-26T16:14:02Z</time></trkpt><trkpt lat="43.8535449444697" lon="11.23808454169148"><ele>627.0</ele><time>2026-04-26T16:14:09Z</time></trkpt><trkpt lat="43.85348106242017" lon="11.238080277791319"><ele>627.0</ele><time>2026-04-26T16:14:15Z</time></trkpt><trkpt lat="43.85341836981485" lon="11.238092671427426"><ele>627.0</ele><time>2026-04-26T16:14:21Z</time></trkpt><trkpt lat="43.85335613966808" lon="11.238105993048894"><ele>627.0</ele><time>2026-04-26T16:14:27Z</time></trkpt><trkpt lat="43.85329242991485" lon="11.238122976363378"><ele>627.0</ele><time>2026-04-26T16:14:33.999Z</time></trkpt><trkpt lat="43.85322751463898" lon="11.238150959813359"><ele>627.0</ele><time>2026-04-26T16:14:40.999Z</time></trkpt><trkpt lat="43.85316878704302" lon="11.238185300628176"><ele>627.0</ele><time>2026-04-26T16:14:47.999Z</time></trkpt><trkpt lat="43.85310791607286" lon="11.238213581454596"><ele>627.0</ele><time>2026-04-26T16:14:54.999Z</time></trkpt><trkpt lat="43.853044960047995" lon="11.238259110132555"><ele>627.0</ele><time>2026-04-26T16:15:01.999Z</time></trkpt><trkpt lat="43.85297833570392" lon="11.23829753312105"><ele>627.0</ele><time>2026-04-26T16:15:09.999Z</time></trkpt><trkpt lat="43.852927032931596" lon="11.23835511142411"><ele>627.0</ele><time>2026-04-26T16:15:18.999Z</time></trkpt><trkpt lat="43.852865042644865" lon="11.23838046262008"><ele>627.0</ele><time>2026-04-26T16:15:24.999Z</time></trkpt><trkpt lat="43.85280119556859" lon="11.238418896862433"><ele>627.0</ele><time>2026-04-26T16:15:31.999Z</time></trkpt><trkpt lat="43.85273916020958" lon="11.238449027742934"><ele>627.0</ele><time>2026-04-26T16:15:41.999Z</time></trkpt><trkpt lat="43.85267063035964" lon="11.238472251910592"><ele>627.0</ele><time>2026-04-26T16:15:49.999Z</time></trkpt><trkpt lat="43.85261076066869" lon="11.23851344316546"><ele>627.0</ele><time>2026-04-26T16:16:04Z</time></trkpt><trkpt lat="43.85254104441049" lon="11.238521188024434"><ele>624.7142857142858</ele><time>2026-04-26T16:16:10Z</time></trkpt><trkpt lat="43.85247788378725" lon="11.23854321961615"><ele>622.4285714285714</ele><time>2026-04-26T16:16:19Z</time></trkpt><trkpt lat="43.85240751957642" lon="11.23855121311377"><ele>620.1428571428571</ele><time>2026-04-26T16:16:28Z</time></trkpt><trkpt lat="43.852342729457554" lon="11.238587684233554"><ele>617.8571428571429</ele><time>2026-04-26T16:16:36Z</time></trkpt><trkpt lat="43.85228151756286" lon="11.238640769275493"><ele>615.5714285714286</ele><time>2026-04-26T16:16:43Z</time></trkpt><trkpt lat="43.85232256133543" lon="11.238568779046673"><ele>613.2857142857143</ele><time>2026-04-26T16:16:55.999Z</time></trkpt><trkpt lat="43.852255167567485" lon="11.238575904681564"><ele>611.0</ele><time>2026-04-26T16:17:24.999Z</time></trkpt><trkpt lat="43.85219627402004" lon="11.238607618028981"><ele>611.0000000000001</ele><time>2026-04-26T16:17:29.999Z</time></trkpt><trkpt lat="43.85212735415181" lon="11.238632317941246"><ele>611.0</ele><time>2026-04-26T16:17:34.999Z</time></trkpt><trkpt lat="43.85205222140833" lon="11.238650379471547"><ele>611.0</ele><time>2026-04-26T16:17:40.999Z</time></trkpt><trkpt lat="43.851984243741846" lon="11.238655365129254"><ele>611.0</ele><time>2026-04-26T16:17:46.999Z</time></trkpt><trkpt lat="43.85192019393723" lon="11.238670463249756"><ele>611.0</ele><time>2026-04-26T16:17:51.999Z</time></trkpt><trkpt lat="43.85185506921283" lon="11.238671208362408"><ele>611.0000000000001</ele><time>2026-04-26T16:17:56.999Z</time></trkpt><trkpt lat="43.85178769825221" lon="11.238668788306386"><ele>611.0</ele><time>2026-04-26T16:18:03Z</time></trkpt><trkpt lat="43.85171521857297" lon="11.238670891432387"><ele>608.4285714285714</ele><time>2026-04-26T16:18:09Z</time></trkpt><trkpt lat="43.85164690588863" lon="11.238685143034063"><ele>605.8571428571429</ele><time>2026-04-26T16:18:15Z</time></trkpt><trkpt lat="43.85157797176908" lon="11.238653843479563"><ele>603.2857142857142</ele><time>2026-04-26T16:18:21Z</time></trkpt><trkpt lat="43.851502575678786" lon="11.238622278967364"><ele>600.7142857142858</ele><time>2026-04-26T16:18:27Z</time></trkpt><trkpt lat="43.85143351920341" lon="11.23860218025426"><ele>598.1428571428571</ele><time>2026-04-26T16:18:33Z</time></trkpt><trkpt lat="43.85135931500421" lon="11.23858273993766"><ele>595.5714285714286</ele><time>2026-04-26T16:18:39Z</time></trkpt><trkpt lat="43.85129361770752" lon="11.238535869654847"><ele>593.0</ele><time>2026-04-26T16:18:45Z</time></trkpt><trkpt lat="43.851248713223924" lon="11.238471864929483"><ele>592.9999999999999</ele><time>2026-04-26T16:18:50Z</time></trkpt><trkpt lat="43.85120289034704" lon="11.238398466576188"><ele>593.0</ele><time>2026-04-26T16:18:57Z</time></trkpt><trkpt lat="43.851166700243844" lon="11.238322603615137"><ele>593.0</ele><time>2026-04-26T16:19:03Z</time></trkpt><trkpt lat="43.85115508783584" lon="11.238230825650898"><ele>593.0</ele><time>2026-04-26T16:19:06Z</time></trkpt><trkpt lat="43.85111544507883" lon="11.23815116734892"><ele>593.0</ele><time>2026-04-26T16:19:11.999Z</time></trkpt><trkpt lat="43.85116020546276" lon="11.23802467077905"><ele>592.9999999999999</ele><time>2026-04-26T16:20:38Z</time></trkpt><trkpt lat="43.85116610213336" lon="11.23812604972571"><ele>593.0</ele><time>2026-04-26T16:23:20Z</time></trkpt><trkpt lat="43.85118841202553" lon="11.238213270420383"><ele>592.9999999999999</ele><time>2026-04-26T16:23:25Z</time></trkpt><trkpt lat="43.85121900126279" lon="11.2382914852545"><ele>593.0</ele><time>2026-04-26T16:23:29.999Z</time></trkpt><trkpt lat="43.85126565761065" lon="11.238368981024975"><ele>593.0</ele><time>2026-04-26T16:23:35.999Z</time></trkpt><trkpt lat="43.85130312657935" lon="11.238452107634005"><ele>593.0</ele><time>2026-04-26T16:23:41.999Z</time></trkpt><trkpt lat="43.85134358948316" lon="11.238528074703101"><ele>593.0</ele><time>2026-04-26T16:23:48.999Z</time></trkpt><trkpt lat="43.85140954343585" lon="11.23856309319937"><ele>592.9999999999999</ele><time>2026-04-26T16:23:55.999Z</time></trkpt><trkpt lat="43.851471787123444" lon="11.23857679687437"><ele>593.0</ele><time>2026-04-26T16:24:01.999Z</time></trkpt><trkpt lat="43.85154344820712" lon="11.238605005140753"><ele>592.9999999999999</ele><time>2026-04-26T16:24:08.999Z</time></trkpt><trkpt lat="43.851606596153914" lon="11.238647417433603"><ele>593.0</ele><time>2026-04-26T16:24:14.999Z</time></trkpt><trkpt lat="43.85167099407575" lon="11.2386539554593"><ele>593.0</ele><time>2026-04-26T16:24:21Z</time></trkpt><trkpt lat="43.85174300970077" lon="11.238637663105694"><ele>593.0</ele><time>2026-04-26T16:24:27Z</time></trkpt><trkpt lat="43.85180356751289" lon="11.238674193621227"><ele>593.0</ele><time>2026-04-26T16:24:33Z</time></trkpt><trkpt lat="43.85187179008222" lon="11.238673604695508"><ele>592.9999999999999</ele><time>2026-04-26T16:24:40Z</time></trkpt><trkpt lat="43.85193967471971" lon="11.238676992262851"><ele>593.0</ele><time>2026-04-26T16:24:46Z</time></trkpt><trkpt lat="43.85202018314961" lon="11.238661836126122"><ele>611.0</ele><time>2026-04-26T16:24:53Z</time></trkpt></trkseg></trk></gpx>